beeeboopbop Games - Total: 12017
1 2 3 4 5 6 7 8 9 10 11 12 13
Rank Song Name Score PGAMB Combo Time
309 That's Gonna Be 812,980 549 - 6 - 0 - 2 - 0 510 2023-09-08 14:27:44
172 Real Ultimate Power 28,865 18 - 1 - 0 - 1 - 0 19 2023-09-08 14:26:54
477 Wanderflux 949,940 614 - 2 - 0 - 1 - 0 612 2023-09-08 14:26:06
401 Wanderflux 2,027,590 1,317 - 2 - 0 - 1 - 0 1,303 2023-09-08 14:24:54
474 Wanderflux 971,540 625 - 4 - 0 - 1 - 0 627 2023-09-08 14:23:19
31 Wanderflux 4,623,755 3,033 - 3 - 2 - 1 - 1 2,955 2023-09-08 14:22:16
166 PEACE BREAKER 1,684,005 1,148 - 3 - 2 - 1 - 1 1,052 2023-09-08 14:18:56
299 PEACE BREAKER 247,175 157 - 3 - 0 - 0 - 0 160 2023-09-08 14:17:25
111 PEACE BREAKER 3,939,965 2,534 - 13 - 0 - 1 - 0 2,543 2023-09-08 14:15:48
26 END OF SYSTEM 2,632,485 2,593 - 9 - 2 - 7 - 4 1,206 2023-09-08 14:11:23
207 Neko Nadetai 81,555 57 - 3 - 0 - 2 - 0 50 2023-09-08 14:08:36
1,061 Hello (BPM) 2021 346,680 213 - 8 - 6 - 0 - 0 227 2023-09-08 14:08:19
367 Zygourous Distribution 1,006,065 645 - 5 - 0 - 0 - 3 650 2023-09-08 14:07:31
30 Undici [PB] 3,064,120 3,297 - 30 - 4 - 8 - 11 1,245 2023-09-08 14:06:23
63 44 Edit v2 2,668,735 2,159 - 11 - 0 - 2 - 6 1,479 2023-09-08 14:02:29
66 44 Edit v2 1,433,070 927 - 2 - 0 - 1 - 1 923 2023-09-08 13:58:46
9 44 Edit v2 3,034,705 3,124 - 9 - 0 - 3 - 2 1,315 2023-09-08 13:56:09
62 Powerflux [PB] 3,776,870 4,044 - 30 - 0 - 8 - 5 1,547 2023-09-08 13:50:42
137 Sinthasomphone [PB] 1,865,365 1,833 - 9 - 0 - 4 - 1 856 2023-09-08 13:46:45
286 Zygourous Distribution 1,324,570 955 - 7 - 1 - 2 - 2 798 2023-09-08 12:14:51
197 Zygourous Distribution 1,694,020 1,544 - 12 - 2 - 5 - 2 843 2023-09-08 12:13:26
1,057 Hello (BPM) 2021 329,625 216 - 4 - 1 - 1 - 1 210 2023-09-04 16:18:30
206 Neko Nadetai 85,895 49 - 9 - 2 - 2 - 1 57 2023-09-04 16:17:58
204 Neko Nadetai 84,625 56 - 4 - 1 - 1 - 1 53 2023-09-04 16:17:49
146 Starflight 2,049,530 1,688 - 14 - 4 - 6 - 4 1,119 2023-09-04 16:17:14
145 Starflight 2,055,830 1,706 - 15 - 1 - 5 - 5 1,115 2023-09-04 16:15:18
20 Starflight [PB] 2,501,190 2,492 - 16 - 4 - 3 - 5 1,127 2023-09-04 16:13:31
372 Zygourous Distribution 695,145 636 - 1 - 0 - 3 - 0 346 2023-09-04 16:11:14
23 res extensa [PB] 2,810,260 3,458 - 49 - 9 - 17 - 17 900 2023-09-04 16:10:13
19 Isometry 2,719,200 3,327 - 36 - 8 - 9 - 10 882 2023-09-04 16:06:51
71 END OF SYSTEM 57,330 37 - 0 - 0 - 0 - 1 37 2023-09-04 16:03:28
44 dreamless wanderer 1,561,440 1,078 - 8 - 0 - 2 - 2 967 2023-09-04 16:01:40
228 Mondo Brutale 221,115 153 - 1 - 0 - 1 - 0 137 2023-09-04 16:00:29
246 Mondo Brutale 21,700 14 - 0 - 0 - 0 - 0 14 2023-09-04 15:59:33
15 LWVIIX (Lawn Wake 69) [PB] 2,024,205 2,320 - 40 - 3 - 12 - 12 741 2023-09-04 15:58:47
8 DsMaxInkd [PB] 3,611,855 3,957 - 34 - 11 - 13 - 21 1,430 2023-09-04 15:55:34
9 POWA OF DA WILDANES [PB] 4,025,700 4,135 - 15 - 1 - 5 - 9 1,749 2023-09-04 15:50:57
912 Hello (BPM) 2021 473,080 314 - 17 - 1 - 1 - 2 296 2023-09-04 15:47:10
26 Extratone Firestorm [PB] 3,051,640 3,296 - 28 - 4 - 6 - 11 1,233 2023-09-04 15:46:12
401 Zygourous Distribution 833,175 538 - 2 - 1 - 1 - 1 537 2023-09-04 15:43:26
316 Zygourous Distribution 1,032,755 797 - 11 - 0 - 2 - 0 592 2023-09-04 15:42:50
25 Zygourous Distribution 2,242,185 2,533 - 15 - 6 - 4 - 9 846 2023-09-04 15:42:02
384 Zygourous Distribution 914,840 589 - 2 - 0 - 2 - 2 591 2023-09-04 15:39:35
35 DsMaxInkd 491,865 317 - 3 - 0 - 1 - 0 317 2023-09-04 12:41:15
1,311 Crystal Chamber Combustion (bike) 194,270 133 - 5 - 1 - 1 - 0 120 2023-09-04 12:40:19
1,287 Crystal Chamber Combustion (bike) 228,750 141 - 8 - 0 - 0 - 0 149 2023-09-04 12:40:06
184 eXXXcaliborg.Error 346,570 219 - 5 - 1 - 1 - 0 225 2023-09-04 12:39:45
546 Zygourous Distribution 276,245 178 - 1 - 0 - 3 - 0 179 2023-09-04 12:38:30
24 gigadelic (Camellia's "THE TERA" Remix) [10^12 Long ver.] 1,807,095 1,433 - 8 - 1 - 1 - 0 1,017 2023-09-04 12:36:51
44,441 Death Piano 87,765 56 - 1 - 0 - 1 - 0 57 2023-09-04 12:34:49
19 LWVIIX (Lawn Wake 69) 1,828,100 2,308 - 50 - 4 - 13 - 12 549 2023-09-04 12:34:24
344 LWVIIX (Lawn Wake 69) 351,850 231 - 0 - 0 - 20 - 0 231 2023-09-04 12:31:51
131 goTe EX 777,100 826 - 22 - 2 - 4 - 6 318 2023-09-04 12:31:19
8 Blue Streaks of Happiness [PB] 4,270,415 5,709 - 64 - 3 - 16 - 17 1,118 2023-09-04 12:29:35
57 VIS::CRACKED v2 [1.2x] 371,895 299 - 5 - 0 - 3 - 0 207 2023-09-04 12:23:15
38 99.9 (Eurobeat Remix) [1.2x] 2,702,575 2,588 - 34 - 3 - 4 - 5 1,271 2023-09-04 12:22:14
129 Unconnected. [1.2x] 271,455 175 - 4 - 1 - 3 - 1 175 2023-09-04 12:19:59
41 ++ [1.2x] 2,749,545 1,809 - 7 - 0 - 1 - 1 1,753 2023-09-04 12:18:32
77 Happy Ending (Kkrusty's We Ready Remix) [1.2x] 1,444,845 1,243 - 9 - 0 - 4 - 2 760 2023-09-04 12:16:43
1,208 grind4 [1.2x] 228,795 155 - 3 - 0 - 4 - 2 144 2023-09-04 12:15:02
49 A Battle I Absolutely Can't Lose ~ Kill the Nyanko [1.2x] 2,841,425 1,961 - 19 - 0 - 1 - 2 1,758 2023-09-04 12:14:34
104 Mike French Hardcore Custom [1.3x] 1,192,775 921 - 39 - 8 - 6 - 4 677 2023-09-04 12:11:27
463 Inferno of Fomalhaut [1.3x] 238,040 214 - 8 - 0 - 6 - 0 120 2023-09-04 12:10:24
81 Swamp Thing v2 [1.4x] 1,617,500 1,463 - 8 - 0 - 1 - 2 811 2023-09-04 12:09:44
258 Real [1.4x] 1,279,405 1,116 - 13 - 0 - 3 - 2 663 2023-09-04 12:07:34
487 My Fxxkin Desire For You [1.4x] 1,310,345 1,318 - 17 - 2 - 4 - 5 582 2023-09-04 12:06:01
698 Gate Openerz [1.55x] 1,161,015 1,409 - 52 - 7 - 24 - 9 379 2023-09-04 12:04:14
80 !(Z)X(Z)! [1.55x] 72,105 77 - 7 - 0 - 7 - 0 30 2023-09-04 12:02:56
1,063 The Devil Plays Dance Games [1.7x] 869,460 1,085 - 60 - 4 - 19 - 6 262 2023-09-04 12:02:39
1,566 All i wanna do is touch your powerpoints [1.7x] 1,196,775 1,330 - 69 - 0 - 18 - 6 452 2023-09-04 12:00:55
239 Nageki no mori (Breakcore Remix) [1.4x] 701,620 698 - 20 - 4 - 6 - 7 314 2023-09-04 11:59:14
257 Break [1.35x] 986,945 1,317 - 41 - 4 - 12 - 9 255 2023-09-04 11:58:10
198 Mondo Brutale 421,290 309 - 7 - 1 - 2 - 1 250 2023-09-03 12:22:40
4,460 Fireball 320,405 221 - 9 - 0 - 2 - 0 197 2023-09-03 12:21:51
269 Track title 223,465 150 - 1 - 0 - 1 - 0 141 2023-09-03 12:21:26
289 Delta:for the DELTA (Camellia's "PLANETARY//DUBSTEP" Remix) 930 1 - 0 - 0 - 2 - 0 1 2023-09-03 12:21:10
38 VIS::CRACKED v2 [1.1x] 2,550,820 2,500 - 35 - 1 - 12 - 7 1,170 2023-09-03 12:20:35
18 Braindead [1.1x] 4,445,860 3,401 - 39 - 1 - 1 - 8 2,565 2023-09-03 12:17:11
342 The Disappearance of Hatsune Miku -Theatrical Version- [1.2x] 1,919,520 1,884 - 45 - 5 - 7 - 8 873 2023-09-03 12:13:17
80 Finding Her Not [1.2x] 2,318,810 2,997 - 26 - 4 - 9 - 6 666 2023-09-03 12:10:34
351 You Show [1.2x] 104,840 72 - 2 - 0 - 1 - 0 65 2023-09-03 12:07:13
79 sub/zero [1.2x] 1,795,760 1,903 - 23 - 1 - 7 - 5 745 2023-09-03 12:06:41
112 sub/zero [1.2x] 187,955 185 - 3 - 0 - 2 - 0 86 2023-09-03 12:04:48
77 Illegal Trap [1.3x] 828,315 1,050 - 40 - 1 - 10 - 7 243 2023-09-03 12:04:13
1,886 Call me it. (500 Tortures) [1.3x] 594,330 525 - 21 - 1 - 7 - 4 302 2023-09-03 12:03:09
707 Finixe [1.3x] 376,735 352 - 5 - 0 - 4 - 0 183 2023-09-03 12:02:31
280 A Quick Death [1.3x] 1,398,660 1,626 - 14 - 0 - 11 - 4 504 2023-09-03 12:01:43
3,206 Schmollbluk [1.3x] 671,260 487 - 6 - 0 - 4 - 0 403 2023-09-03 11:59:40
76 Red Sheets, White Lies [1.3x] 1,581,800 1,514 - 28 - 8 - 6 - 9 743 2023-09-03 11:58:43
38 Celsus v2 [1.3x] 1,719,390 2,008 - 27 - 3 - 8 - 6 610 2023-09-03 11:56:11
82 ++ [1.3x] 1,063,220 1,115 - 18 - 4 - 10 - 5 448 2023-09-03 11:54:12
1,240 thinking of you [1.45x] 622,100 634 - 21 - 1 - 11 - 1 271 2023-09-03 11:52:40
70 Slash Dot Slash (Slim boy fat) [1.45x] 898,700 1,009 - 57 - 1 - 16 - 1 333 2023-09-03 11:51:57
429 Extratone Firestorm 888,705 786 - 12 - 1 - 3 - 1 454 2023-09-02 13:43:41
317 Zygourous Distribution 804,420 795 - 4 - 0 - 3 - 0 367 2023-09-02 13:42:54
427 PhonDrome! [Oni] 780,835 504 - 1 - 0 - 2 - 1 504 2023-09-02 12:51:42
102 Schwerkraft 1,221,470 826 - 4 - 0 - 3 - 0 767 2023-09-02 12:50:49
271 The Little Devil's Heart-Pounding Amusement Park [Oni] 2,303,640 1,487 - 4 - 0 - 1 - 0 1,485 2023-09-02 12:49:01
55 Time Signature 1,301,410 1,071 - 24 - 0 - 4 - 0 707 2023-09-02 12:46:40
73 Time Signature 361,905 330 - 13 - 2 - 4 - 2 178 2023-09-02 12:45:05
2,141 You Universe 181,265 113 - 4 - 1 - 0 - 2 118 2023-09-02 12:44:32
2,262 You Universe 126,275 79 - 3 - 0 - 0 - 0 82 2023-09-02 12:44:12
304 brute force 257,915 168 - 3 - 0 - 1 - 0 165 2023-09-02 12:43:58
38 OWA Raged at Home Run Derby [PB] 2,831,950 3,053 - 11 - 1 - 4 - 2 1,151 2023-09-02 12:42:51
27 Gamma Stop Sending Me Ratchet and Clank Videos to Sample [PB] 4,272,245 4,008 - 29 - 4 - 7 - 9 2,062 2023-09-02 12:38:33
24 Track title [PB] 4,470,820 4,511 - 33 - 1 - 4 - 6 1,982 2023-09-02 12:33:37
191 Ra Variationen 943,965 767 - 5 - 0 - 4 - 1 522 2023-09-02 12:28:14
2,305 Fushigi Usagi Milk Tei 801,360 546 - 13 - 1 - 5 - 1 499 2023-09-02 11:42:15
187 Fury 1,849,080 1,472 - 4 - 0 - 2 - 0 1,039 2023-08-31 14:41:26
341 Gamma Stop Sending Me High Quality Rips 1,019,120 657 - 5 - 1 - 2 - 2 657 2023-08-31 14:39:06
18 Gamma Stop Sending Me High Quality Rips 3,879,235 3,687 - 11 - 0 - 2 - 1 1,849 2023-08-31 14:37:13
118 Real Ultimate Power 1,374,840 892 - 2 - 0 - 1 - 0 884 2023-08-31 14:33:18
132 Real Ultimate Power 1,086,685 697 - 5 - 0 - 0 - 2 702 2023-08-31 14:32:06
42 POWA OF DA WILDANES 1,953,195 1,611 - 14 - 1 - 2 - 7 1,064 2023-08-31 14:30:36
985 Heartbreak Furry Fandom 112,415 67 - 10 - 3 - 1 - 2 73 2023-08-31 14:28:57
2,435 Fireball 802,545 717 - 36 - 1 - 2 - 7 399 2023-08-31 14:28:02
424 Extratone Firestorm 1,206,445 801 - 4 - 3 - 1 - 3 765 2023-08-31 14:26:26
518 Extratone Firestorm 755,550 475 - 12 - 4 - 0 - 11 491 2023-08-31 14:25:33
51 dreamless wanderer 611,700 393 - 2 - 0 - 0 - 0 395 2023-08-31 14:24:48
27 Wanderflux [PB] 4,022,250 3,034 - 3 - 1 - 1 - 1 2,353 2023-08-31 14:23:11
485 Wanderflux 850,345 552 - 0 - 1 - 1 - 0 547 2023-08-31 14:20:08
946 Tachyon Beam Cannon 26,515 21 - 1 - 0 - 1 - 0 15 2023-08-31 14:19:17
105 eXXXcaliborg.Error 1,344,410 1,025 - 7 - 1 - 4 - 4 780 2023-08-31 14:18:42
113 eXXXcaliborg.Error 932,725 827 - 4 - 1 - 4 - 2 478 2023-08-31 14:17:53
63 END OF SYSTEM 1,057,395 683 - 1 - 2 - 2 - 1 682 2023-08-31 14:17:10
55 O Wings that Embrace Senju Banmei 965,965 779 - 3 - 0 - 1 - 0 537 2023-08-31 14:15:42
1,029 Pavlov's Dog [2.2x] [FC] 742,990 478 - 0 - 2 - 0 - 1 480 2023-08-31 14:14:08
1,031 Pavlov's Dog [2.2x] [FC] 742,900 476 - 4 - 0 - 0 - 0 480 2023-08-31 14:13:12
492 I'm A Fucking Idiot 617,865 398 - 1 - 0 - 1 - 0 399 2023-08-31 14:11:24
147 Starflight 2,566,045 1,682 - 19 - 2 - 1 - 4 1,636 2023-08-31 14:10:06
472 That's Gonna Be 196,850 127 - 0 - 0 - 0 - 0 127 2023-08-31 14:08:01
365 That's Gonna Be 483,250 310 - 4 - 0 - 1 - 2 312 2023-08-31 14:07:46
270 PEACE BREAKER 689,350 446 - 0 - 0 - 3 - 1 445 2023-08-31 14:06:58
7 Braindead [FC] [PB] 5,334,215 3,439 - 3 - 0 - 0 - 3 3,442 2023-08-31 14:04:26
949 Undici 2,517,680 1,961 - 14 - 0 - 2 - 5 1,436 2023-08-31 13:59:57
83 Offset Packed 2,879,135 2,033 - 12 - 1 - 1 - 3 1,758 2023-08-31 13:57:33
113 Offset Packed 942,540 605 - 4 - 0 - 1 - 0 609 2023-08-31 13:55:19
13,180 Reluctantly Accepting Temporary Overexhaustion 908,160 586 - 4 - 2 - 1 - 2 585 2023-08-31 13:54:16
76 Reluctantly Accepting Temporary Overexhaustion [FC] [PB] 2,476,015 1,589 - 7 - 4 - 0 - 4 1,600 2023-08-31 13:52:53
507 Extratone Firestorm 747,790 531 - 8 - 2 - 5 - 1 455 2023-08-31 13:50:36
396 Violent Arcade 895,345 804 - 9 - 0 - 1 - 1 451 2023-08-31 13:49:50
61 44 Edit v2 2,295,775 1,486 - 3 - 0 - 1 - 2 1,478 2023-08-31 13:48:22
76 44 Edit v2 1,550 1 - 0 - 0 - 0 - 0 1 2023-08-31 13:43:19
8 44 Edit v2 [PB] 3,581,015 3,127 - 7 - 0 - 2 - 7 1,860 2023-08-31 13:41:34
102 Endymion 233,775 150 - 1 - 0 - 0 - 0 151 2023-08-31 13:37:27
68 Endymion 942,240 621 - 0 - 0 - 1 - 0 601 2023-08-31 13:37:14
73 Endymion 808,165 523 - 3 - 0 - 1 - 0 520 2023-08-31 13:36:35
32 Hello (BPM) 2021 2,703,145 2,704 - 35 - 8 - 6 - 13 1,208 2023-08-31 13:35:09
51 END OF SYSTEM 2,149,770 1,631 - 6 - 0 - 3 - 0 1,252 2023-08-31 13:32:01
281 Gamma Stop Sending Me High Quality Rips 1,556,705 1,109 - 5 - 0 - 2 - 0 946 2023-08-31 13:30:16
438 LWVIIX (Lawn Wake 69) 18,325 11 - 1 - 0 - 0 - 0 12 2023-08-31 13:28:57
29 DsMaxInkd 2,384,520 2,128 - 34 - 2 - 10 - 12 1,208 2023-08-31 13:28:29
29 DsMaxInkd 1,648,725 1,423 - 12 - 1 - 4 - 2 864 2023-08-31 13:26:30
9 DsMaxInkd [PB] 3,200,265 3,929 - 59 - 8 - 19 - 23 1,029 2023-08-31 13:24:10
14 POWA OF DA WILDANES 3,256,910 4,107 - 35 - 3 - 11 - 16 992 2023-08-31 13:19:45
14 POWA OF DA WILDANES 3,068,300 4,108 - 35 - 1 - 12 - 3 803 2023-08-31 13:15:43
1,317 Crystal Chamber Combustion (bike) 201,635 129 - 7 - 2 - 1 - 2 129 2023-08-31 13:11:35
237 Isometry 727,140 466 - 3 - 1 - 0 - 2 470 2023-08-31 13:11:05
430 Hello (BPM) 2021 1,300,390 1,311 - 12 - 6 - 7 - 6 578 2023-08-31 13:09:43
7 dreamless wanderer [PB] 4,848,675 3,661 - 20 - 1 - 1 - 6 2,830 2023-08-31 13:05:58
7 dreamless wanderer [PB] 2,962,450 3,663 - 15 - 1 - 4 - 7 945 2023-08-31 13:00:11
137 F.F.R ~FINAL FRONTIER RESOLUTION~ 1,029,720 662 - 3 - 3 - 1 - 3 665 2023-08-31 12:56:42
15 F.F.R ~FINAL FRONTIER RESOLUTION~ [PB] 3,117,320 2,782 - 14 - 2 - 2 - 6 1,584 2023-08-31 12:55:39
102 Starflight 2,300,505 2,124 - 20 - 9 - 5 - 7 1,128 2023-08-31 12:52:29
36 Zygourous Distribution 2,169,830 2,513 - 36 - 2 - 7 - 8 780 2023-08-31 12:50:10
22 Zygourous Distribution [PB] 2,730,775 2,532 - 18 - 5 - 3 - 6 1,334 2023-08-31 12:47:14
35 Zygourous Distribution [PB] 2,159,895 2,512 - 34 - 5 - 7 - 8 771 2023-08-31 12:44:32
298 Extratone Firestorm 1,738,695 1,726 - 21 - 6 - 5 - 8 785 2023-08-31 12:42:12
29 Extratone Firestorm [PB] 2,740,315 3,289 - 29 - 10 - 6 - 15 925 2023-08-31 12:40:03
496 Extratone Firestorm 879,320 581 - 6 - 0 - 6 - 1 560 2023-08-31 12:37:19
529 Extratone Firestorm 644,105 422 - 5 - 0 - 1 - 3 411 2023-08-31 12:36:45
69 res extensa 2,931,575 2,392 - 40 - 5 - 10 - 10 1,608 2023-08-31 12:35:33
37 Crystal Chamber Combustion (bike) [PB] 2,361,470 2,174 - 77 - 9 - 8 - 21 1,147 2023-08-31 12:33:24
192 eXXXcaliborg.Error 208,665 134 - 1 - 0 - 1 - 0 135 2023-08-31 12:31:01
21 Mondo Brutale [PB] 1,933,965 2,048 - 59 - 4 - 12 - 8 795 2023-08-31 12:29:52
44 Bolt Thrower In A Chinese Restaurant 3,022,475 3,170 - 67 - 16 - 13 - 15 1,264 2023-08-31 12:27:04
88 LWVIIX (Lawn Wake 69) 1,951,235 1,923 - 45 - 10 - 10 - 12 884 2023-08-31 12:23:15
16 LWVIIX (Lawn Wake 69) [PB] 1,800,490 2,311 - 48 - 4 - 12 - 13 520 2023-08-31 12:20:56
11 Blue Streaks of Happiness [PB] 5,325,935 5,667 - 87 - 12 - 26 - 22 2,193 2023-08-31 12:18:02
40 Fireball 1,371,975 1,913 - 88 - 3 - 20 - 17 302 2023-08-31 12:12:20
18 goTe EX [PB] 3,118,870 3,649 - 81 - 11 - 24 - 26 1,097 2023-08-31 12:09:18
43 Dark Side [1.2x] 1,546,925 1,032 - 12 - 1 - 3 - 5 977 2023-08-31 12:04:52
142 DIST SQUAD [1.2x] 1,018,630 900 - 19 - 1 - 5 - 5 520 2023-08-31 12:03:44
24 breakthrough [1.2x] 1,931,970 1,949 - 15 - 3 - 7 - 5 858 2023-08-31 12:02:36
270 Excuse My Rudeness, but Could You Please RIP? (t+pazolite Remix) [1.2x] 971,280 625 - 2 - 0 - 0 - 1 627 2023-08-31 12:00:22
56 Endymion [1.1x] 2,051,065 1,613 - 35 - 4 - 9 - 7 1,157 2023-08-31 11:54:49
383 Wanderflux 2,114,490 1,414 - 4 - 0 - 1 - 0 1,336 2023-08-30 13:04:17
780 Wanderflux 125,275 80 - 1 - 0 - 0 - 0 81 2023-08-30 13:02:53
831 Wanderflux 58,480 42 - 0 - 0 - 2 - 0 36 2023-08-30 13:02:44
32 Braindead 900,725 577 - 5 - 0 - 0 - 0 582 2023-08-30 13:02:12
53 END OF SYSTEM 1,987,420 1,284 - 3 - 1 - 2 - 2 1,281 2023-08-30 13:01:11
246 Fury 981,140 639 - 0 - 0 - 1 - 0 630 2023-08-30 12:59:31
139 Offset Packed 336,800 214 - 4 - 0 - 0 - 0 218 2023-08-30 12:58:28
169 Offset Packed 120,055 75 - 3 - 0 - 0 - 1 78 2023-08-30 12:58:12
457 That's Gonna Be 174,025 139 - 7 - 0 - 1 - 2 96 2023-08-30 12:57:54
499 That's Gonna Be 115,975 74 - 1 - 0 - 0 - 0 75 2023-08-30 12:57:40
200 Neko Nadetai 95,615 59 - 9 - 0 - 1 - 0 61 2023-08-30 12:57:30
199 Neko Nadetai 96,165 61 - 7 - 0 - 1 - 0 61 2023-08-30 12:57:24
296 Starflight 792,845 517 - 3 - 0 - 1 - 1 508 2023-08-30 12:56:24
20 Starflight [PB] 3,078,950 2,484 - 28 - 0 - 3 - 1 1,706 2023-08-30 12:54:01
458 Starflight 156,000 99 - 2 - 0 - 0 - 0 101 2023-08-30 12:51:55
1,667 Undici 2,244,380 1,632 - 10 - 0 - 3 - 2 1,345 2023-08-30 12:51:32
125 eXXXcaliborg.Error 656,230 565 - 4 - 0 - 2 - 0 345 2023-08-30 12:49:39
40 dreamless wanderer 1,794,255 1,255 - 13 - 2 - 2 - 3 1,101 2023-08-30 12:48:46
374 Extratone Firestorm 1,104,680 1,012 - 10 - 2 - 2 - 8 546 2023-08-30 12:47:19
498 Extratone Firestorm 826,435 554 - 5 - 0 - 2 - 1 521 2023-08-30 12:46:25
1,164 Hello (BPM) 2021 207,600 134 - 4 - 2 - 1 - 0 133 2023-08-30 12:45:44
31 Hello (BPM) 2021 2,803,130 2,708 - 31 - 5 - 9 - 14 1,308 2023-08-30 12:44:35
8 DsMaxInkd [PB] 3,806,010 3,916 - 74 - 6 - 19 - 29 1,638 2023-08-30 12:41:34
52 POWA OF DA WILDANES 667,545 432 - 1 - 0 - 1 - 1 430 2023-08-30 12:37:41
54 POWA OF DA WILDANES 276,900 177 - 2 - 0 - 0 - 0 179 2023-08-30 12:36:58
12 POWA OF DA WILDANES [PB] 4,117,150 4,108 - 34 - 8 - 6 - 9 1,850 2023-08-30 12:36:02
12 POWA OF DA WILDANES [PB] 3,589,890 4,107 - 34 - 4 - 11 - 6 1,325 2023-08-30 12:31:09
69 LWVIIX (Lawn Wake 69) 1,769,285 2,106 - 48 - 5 - 17 - 11 603 2023-08-30 12:27:10
29 Tachyon Beam Cannon 5,192,610 5,249 - 54 - 4 - 7 - 12 2,293 2023-08-30 12:24:28
429 Tachyon Beam Cannon 909,110 669 - 9 - 1 - 1 - 3 539 2023-08-30 12:19:57
209 Mondo Brutale 379,385 242 - 7 - 0 - 2 - 1 245 2023-08-30 12:19:08
844 Crystal Chamber Combustion (bike) 531,030 553 - 16 - 2 - 5 - 4 224 2023-08-30 12:18:24
93 Isometry 2,228,015 2,619 - 37 - 10 - 16 - 10 782 2023-08-30 12:17:25
19 Isometry [PB] 3,633,775 3,322 - 47 - 4 - 7 - 15 1,796 2023-08-30 12:14:37
19 Isometry [PB] 3,632,615 3,323 - 42 - 9 - 6 - 11 1,795 2023-08-30 12:10:57
19 Isometry [PB] 2,784,370 3,325 - 37 - 9 - 9 - 13 948 2023-08-30 12:06:57
41 Hello (BPM) 2021 2,153,840 2,689 - 44 - 6 - 14 - 10 667 2023-08-30 12:03:10
683 Extratone Firestorm 280,305 183 - 1 - 0 - 2 - 0 180 2023-08-30 12:00:50
87 Zygourous Distribution 2,009,965 2,224 - 34 - 5 - 12 - 7 781 2023-08-30 12:00:25
59 O Wings that Embrace Senju Banmei [1.2x] 550,435 354 - 5 - 0 - 2 - 1 355 2023-08-30 11:58:27
46 Dark Side [1.2x] 319,510 232 - 2 - 0 - 2 - 1 192 2023-08-30 11:57:45
9,636 do i smile? [1.2x] 184,340 111 - 8 - 2 - 0 - 1 121 2023-08-30 11:56:57
369 You Show [1.2x] 30,570 15 - 6 - 0 - 1 - 1 21 2023-08-30 11:56:22
550 Exam Cram [Oni] [1.3x] 841,500 546 - 9 - 1 - 1 - 1 539 2023-08-30 11:56:01
127 Unconnected. [1.2x] 291,685 209 - 5 - 0 - 2 - 1 176 2023-08-30 11:55:16
82 Nhelv [1.2x] 2,114,400 1,361 - 8 - 0 - 1 - 2 1,364 2023-08-30 11:54:19
83 ++ [1.2x] 1,075,790 970 - 2 - 0 - 4 - 1 543 2023-08-30 11:52:37
66 Slash Dot Slash (Slim boy fat) [1.2x] 2,255,170 1,674 - 3 - 1 - 1 - 5 1,334 2023-08-30 11:51:36
194 FACTORY_RESET [1.3x] 1,196,130 789 - 10 - 2 - 2 - 3 760 2023-08-30 11:49:45
194 FACTORY_RESET [1.2x] 1,248,155 798 - 8 - 1 - 0 - 0 807 2023-08-30 11:48:33
266 FACTORY_RESET [1.2x] 167,400 108 - 0 - 0 - 0 - 0 108 2023-08-30 11:47:42
167 FACTORY_RESET [1.2x] 1,680,620 1,078 - 6 - 2 - 0 - 2 1,086 2023-08-30 11:47:05
81 FACTORY_RESET [1.2x] 1,635,160 1,352 - 8 - 0 - 2 - 1 890 2023-08-30 11:45:29
84 Red Sheets, White Lies [1.2x] 1,869,185 1,235 - 13 - 0 - 2 - 1 1,187 2023-08-30 11:43:41
227 While Sleeping (The Big Sleep) [PB] 1,646,520 1,067 - 0 - 0 - 1 - 1 1,060 2023-08-28 13:41:04
959 to Luv me I *** for u. 4,650 3 - 0 - 0 - 0 - 0 3 2023-08-28 13:39:31
21 gigadelic (Camellia's "THE TERA" Remix) [10^12 Long ver.] [SR] 1,779,865 1,575 - 8 - 1 - 2 - 1 912 2023-08-28 13:37:57
5,513 Reluctantly Accepting Temporary Overexhaustion 1,046,810 935 - 8 - 0 - 2 - 1 531 2023-08-28 13:35:37
306 That's Gonna Be 623,135 506 - 9 - 0 - 2 - 1 343 2023-08-28 13:34:30
33,550 Death Piano 487,525 305 - 5 - 8 - 0 - 2 318 2023-08-28 13:33:52
91 res extensa 2,096,305 1,353 - 5 - 2 - 1 - 1 1,351 2023-08-28 13:33:10
269 LWVIIX (Lawn Wake 69) 620,970 416 - 4 - 0 - 3 - 0 392 2023-08-28 13:30:50
22 DsMaxInkd 2,607,760 3,096 - 70 - 4 - 17 - 12 891 2023-08-28 13:30:04
13 POWA OF DA WILDANES 3,166,810 4,079 - 56 - 2 - 19 - 13 914 2023-08-28 13:26:43
12 POWA OF DA WILDANES [PB] 3,463,285 4,091 - 51 - 2 - 12 - 9 1,203 2023-08-28 13:21:59
117 The End of Dreams [1.45x] 903,665 732 - 6 - 1 - 2 - 1 500 2023-08-28 13:18:16
57 Your wonderful silicon brain [1.45x] 396,805 291 - 5 - 0 - 2 - 0 236 2023-08-28 13:16:57
122 Bust It Out [1.3x] 1,959,885 1,972 - 8 - 1 - 3 - 2 874 2023-08-28 13:16:09
2,721 All i wanna do is touch your powerpoints [1.7x] 1,105,305 1,183 - 55 - 0 - 27 - 5 448 2023-08-28 13:13:14
28 Sinfonia Regalis [1.2x] 1,898,570 1,844 - 16 - 0 - 3 - 5 881 2023-08-28 13:11:37
74 Tanaka [1.2x] 1,858,355 1,703 - 8 - 1 - 5 - 0 921 2023-08-28 13:08:59
73 Tanaka [1.2x] 1,682,610 1,704 - 7 - 1 - 5 - 1 745 2023-08-28 13:06:20
2,429 Slashmaid (instrumental) [1.2x] 408,070 363 - 5 - 1 - 3 - 4 208 2023-08-28 13:04:18
87 Red Sheets, White Lies [1.2x] 1,420,900 974 - 3 - 1 - 2 - 3 885 2023-08-28 13:03:43
102 Delirium v2 [1.2x] 1,166,295 1,346 - 10 - 1 - 9 - 1 426 2023-08-28 13:01:57
78 A Battle I Absolutely Can't Lose ~ Kill the Nyanko [1.2x] 954,835 958 - 13 - 0 - 2 - 1 425 2023-08-28 13:00:31
949 thinking of you [1.2x] 2,249,005 1,456 - 3 - 0 - 2 - 0 1,448 2023-08-28 12:58:45
37 Sinfonia Regalis [1.2x] 1,362,570 1,489 - 13 - 3 - 10 - 1 543 2023-08-28 12:56:41
121 Unconnected. 1,108,810 976 - 6 - 0 - 2 - 1 571 2023-08-28 12:54:50
128 Unconnected. [1.5x] 95,335 63 - 7 - 0 - 4 - 0 60 2023-08-28 12:53:18
76 Unconnected. [PB] 1,869,155 1,400 - 21 - 0 - 2 - 0 1,094 2023-08-28 12:34:09
71 Mario Trap [SR] 540,955 366 - 1 - 0 - 2 - 0 340 2023-08-28 12:31:44
64 Slash Dot Slash (Slim boy fat) [PB] 2,739,850 1,766 - 2 - 0 - 0 - 0 1,768 2023-08-28 12:30:56
36 GOD of MADNESS [SR] 696,845 449 - 3 - 0 - 3 - 0 450 2023-08-28 12:27:29
128 STRANGEPROGRAM v0 [SR] 20,150 13 - 0 - 0 - 0 - 0 13 2023-08-28 12:26:27
37 GOD of MADNESS [1.5x] 107,395 72 - 1 - 0 - 8 - 0 70 2023-08-28 12:25:08
205 Clockwork Dragon 185,725 119 - 1 - 0 - 0 - 0 120 2023-08-27 14:21:56
31 DsMaxInkd 479,260 316 - 4 - 0 - 2 - 1 305 2023-08-27 14:21:29
44 POWA OF DA WILDANES 1,194,840 790 - 7 - 1 - 2 - 1 759 2023-08-27 14:20:39
40 POWA OF DA WILDANES 1,650,540 1,524 - 21 - 5 - 5 - 8 808 2023-08-27 14:19:44
13 POWA OF DA WILDANES 3,236,995 4,047 - 74 - 5 - 30 - 9 1,000 2023-08-27 14:17:36
4,546 Rave 7 795,050 508 - 6 - 0 - 0 - 0 514 2023-08-27 14:13:52
119 Unconnected. [SR] 1,511,790 981 - 2 - 0 - 1 - 0 972 2023-08-27 14:11:30
12 breakthrough [SR] 3,025,960 1,972 - 0 - 0 - 2 - 1 1,942 2023-08-27 14:08:01
40 POWA OF DA WILDANES 1,703,175 1,574 - 20 - 7 - 1 - 5 832 2023-08-26 13:20:25
313 Zygourous Distribution 1,221,570 814 - 8 - 0 - 1 - 1 772 2023-08-26 13:18:36
186 Gamma Stop Sending Me Ratchet and Clank Videos to Sample 723,580 654 - 4 - 2 - 1 - 1 363 2023-08-26 13:17:38
330 Gamma Stop Sending Me Ratchet and Clank Videos to Sample 293,640 188 - 2 - 0 - 1 - 0 190 2023-08-26 13:16:48
1,813 Undici 2,199,700 1,547 - 15 - 1 - 1 - 1 1,345 2023-08-26 13:16:11
26 Braindead 3,075,980 2,734 - 7 - 1 - 2 - 4 1,571 2023-08-26 13:14:01
103 Real Ultimate Power 2,078,875 1,334 - 8 - 1 - 0 - 4 1,343 2023-08-26 13:10:47
121 Real Ultimate Power 1,280,335 825 - 3 - 2 - 1 - 2 826 2023-08-26 13:09:09
100 Real Ultimate Power 2,110,370 1,444 - 4 - 0 - 3 - 0 1,316 2023-08-26 13:08:08
19 Real Ultimate Power [FC] 3,189,935 2,049 - 11 - 0 - 0 - 2 2,060 2023-08-26 13:06:08
18 Real Ultimate Power 2,242,940 2,051 - 8 - 0 - 1 - 0 1,113 2023-08-26 13:03:42
167 Real Ultimate Power 15,500 10 - 0 - 0 - 0 - 0 10 2023-08-26 13:01:20
357 I'm A Fucking Idiot 1,302,500 842 - 10 - 0 - 1 - 2 837 2023-08-26 13:00:36
33 I'm A Fucking Idiot [PB] 2,443,700 2,594 - 12 - 0 - 4 - 3 1,015 2023-08-26 12:58:22
71 brute force [PB] 3,273,655 2,977 - 19 - 8 - 4 - 6 1,632 2023-08-26 12:54:21
192 Radiata (The Quick Brown Fox 'UV' RMX) 919,920 596 - 7 - 1 - 22 - 2 597 2023-08-26 12:51:27
300 Blackmagik Blazing 2,830,645 1,952 - 5 - 0 - 1 - 1 1,756 2023-08-26 12:50:27
29 Braindead 2,766,140 2,433 - 6 - 0 - 2 - 2 1,427 2023-08-25 13:05:35
164 F.F.R ~FINAL FRONTIER RESOLUTION~ 496,215 427 - 2 - 1 - 4 - 0 262 2023-08-25 13:02:53
81 eXXXcaliborg.Error 1,669,990 1,550 - 30 - 4 - 6 - 6 811 2023-08-25 13:01:54
363 Tachyon Beam Cannon 1,124,400 883 - 5 - 1 - 2 - 3 638 2023-08-25 13:00:36
313 Bolt Thrower In A Chinese Restaurant 1,751,560 1,573 - 18 - 2 - 5 - 5 883 2023-08-25 12:59:26
21 Isometry 2,598,020 3,315 - 46 - 6 - 13 - 9 766 2023-08-25 12:57:12
236 You Show [1.2x] 1,420,595 1,304 - 18 - 1 - 5 - 3 700 2023-08-25 11:45:11
2,436 Call me it. (500 Tortures) [1.2x] 452,320 312 - 8 - 2 - 5 - 2 280 2023-08-25 11:43:47
59 breakthrough [1.2x] 181,035 120 - 1 - 0 - 4 - 0 116 2023-08-25 11:43:16
49 breakthrough [1.2x] 518,480 472 - 14 - 0 - 3 - 2 256 2023-08-25 11:43:01
91 Nhelv [1.3x] 849,290 556 - 4 - 2 - 2 - 5 543 2023-08-25 11:42:29
31 Sinfonia Regalis [1.3x] 1,723,205 1,812 - 38 - 1 - 12 - 9 720 2023-08-25 11:41:27
103 Endymion 100,750 65 - 0 - 0 - 0 - 0 65 2023-08-24 13:24:05
121 Offset Packed 566,200 362 - 4 - 0 - 0 - 0 366 2023-08-24 13:23:09
52 Endymion 2,575,045 1,660 - 5 - 0 - 1 - 1 1,661 2023-08-24 13:22:17
49 O Wings that Embrace Senju Banmei 1,577,310 1,016 - 2 - 0 - 0 - 2 1,018 2023-08-24 13:19:42
344 Wanderflux 2,467,545 1,654 - 5 - 2 - 2 - 1 1,557 2023-08-24 13:17:16
34 DsMaxInkd 420,610 274 - 2 - 0 - 2 - 1 270 2023-08-24 13:13:36
716 Hello (BPM) 2021 452,075 476 - 19 - 0 - 3 - 1 186 2023-08-24 13:11:19
144 Starflight 2,267,905 1,688 - 20 - 1 - 3 - 6 1,335 2023-08-24 13:10:30
120 Starflight 2,538,215 1,891 - 22 - 9 - 4 - 7 1,493 2023-08-24 13:08:20
272 Fury 769,800 495 - 2 - 0 - 0 - 0 497 2023-08-24 13:06:32
64 44 Edit v2 1,083,335 706 - 1 - 0 - 4 - 0 696 2023-08-24 13:05:23
203 Neko Nadetai 73,625 56 - 4 - 1 - 1 - 1 42 2023-08-24 13:04:15
314 That's Gonna Be 665,805 463 - 5 - 2 - 1 - 1 410 2023-08-24 13:04:07
205 That's Gonna Be 2,131,380 1,651 - 13 - 3 - 1 - 5 1,220 2023-08-24 13:03:25
37 END OF SYSTEM 2,604,050 2,384 - 3 - 1 - 3 - 5 1,293 2023-08-24 13:00:13
4 Dark Side [FC] [PB] 3,877,785 2,501 - 1 - 0 - 0 - 2 2,502 2023-08-24 12:56:00
29 Braindead 3,107,095 2,351 - 5 - 0 - 1 - 1 1,813 2023-08-24 12:51:52
503 Extratone Firestorm 767,465 545 - 5 - 0 - 2 - 2 467 2023-08-24 12:49:00
533 Extratone Firestorm 622,385 405 - 1 - 0 - 2 - 1 400 2023-08-24 12:48:30
673 Extratone Firestorm 306,340 195 - 1 - 3 - 1 - 2 199 2023-08-24 12:48:04
13,218 Reluctantly Accepting Temporary Overexhaustion 891,280 576 - 14 - 0 - 1 - 3 571 2023-08-24 12:47:40
1,822 Undici 1,667,030 1,545 - 14 - 0 - 5 - 1 815 2023-08-24 12:46:42
3,715 Undici 599,290 478 - 7 - 1 - 5 - 2 336 2023-08-24 12:44:52
192 Zygourous Distribution 1,795,095 1,561 - 13 - 0 - 3 - 5 934 2023-08-24 12:43:43
228 DIST SQUAD [1.2x] 222,110 148 - 2 - 2 - 3 - 1 141 2023-08-24 11:28:44
38 breakthrough [1.2x] 1,511,480 1,680 - 12 - 2 - 9 - 7 587 2023-08-24 11:27:57
59 breakthrough [1.3x] 185,345 117 - 7 - 0 - 3 - 0 120 2023-08-24 11:26:31
231 You Show [1.1x] 2,060,570 1,326 - 8 - 0 - 3 - 0 1,330 2023-08-24 11:25:52
42 VIS::CRACKED v2 [1.1x] 1,422,885 918 - 12 - 1 - 1 - 3 915 2023-08-24 11:23:23
53 VIS::CRACKED v2 [1.1x] 43,400 32 - 0 - 0 - 20 - 0 32 2023-08-24 11:22:21
57 O Wings that Embrace Senju Banmei [1.2x] 525,980 350 - 5 - 1 - 3 - 1 333 2023-08-24 11:20:48
26 DsMaxInkd 1,271,200 904 - 19 - 1 - 4 - 2 770 2023-08-21 14:51:28
71 Endymion 774,705 499 - 1 - 0 - 0 - 1 500 2023-08-21 14:50:27
57 Endymion 1,977,865 1,484 - 7 - 2 - 1 - 3 1,160 2023-08-21 14:49:44
373 That's Gonna Be 422,230 285 - 4 - 0 - 2 - 0 265 2023-08-20 16:23:07
477 That's Gonna Be 178,275 117 - 1 - 0 - 1 - 2 114 2023-08-20 16:22:46
373 Zygourous Distribution 661,755 622 - 1 - 0 - 2 - 0 320 2023-08-20 16:22:23
457 Violent Arcade 727,765 471 - 5 - 0 - 2 - 2 468 2023-08-20 16:21:33
24 Braindead 1,135,845 877 - 3 - 0 - 1 - 1 653 2023-08-20 16:19:04
24 Braindead 1,461,840 940 - 3 - 1 - 0 - 2 944 2023-08-20 16:18:02
8 Braindead [PB] 4,470,815 3,434 - 5 - 2 - 1 - 3 2,581 2023-08-20 16:16:32
20 DsMaxInkd 2,449,930 2,259 - 39 - 9 - 8 - 13 1,199 2023-08-20 14:52:20
6 DsMaxInkd 3,526,525 3,887 - 91 - 16 - 21 - 36 1,370 2023-08-20 14:49:33
27 Blue Streaks of Happiness [PB] 1,095,205 1,354 - 21 - 0 - 7 - 5 347 2023-08-20 14:44:57
38 dreamless wanderer 1,675,800 1,282 - 18 - 2 - 4 - 6 967 2023-08-20 14:42:50
10 POWA OF DA WILDANES [PB] 3,242,795 4,073 - 56 - 11 - 16 - 20 992 2023-08-20 14:41:14
5 DsMaxInkd [PB] 3,416,630 3,890 - 90 - 10 - 25 - 21 1,260 2023-08-20 14:36:21
86 Zygourous Distribution 1,966,250 2,242 - 26 - 2 - 13 - 4 730 2023-08-19 14:12:00
710 Zygourous Distribution 19,875 12 - 1 - 0 - 0 - 0 13 2023-08-19 14:10:05
925 Hello (BPM) 2021 389,625 305 - 11 - 4 - 1 - 3 219 2023-08-19 14:09:55
21 Braindead 1,030,610 814 - 2 - 0 - 2 - 1 583 2023-08-19 14:09:26
126 res extensa 588,655 378 - 5 - 0 - 2 - 0 380 2023-08-19 12:11:39
367 Zygourous Distribution 998,630 641 - 4 - 0 - 0 - 1 645 2023-08-19 12:10:50
19 Braindead 4,067,480 2,613 - 12 - 2 - 0 - 4 2,627 2023-08-19 12:06:53
21 Braindead 1,122,115 720 - 4 - 1 - 0 - 2 725 2023-08-19 12:04:07
19 Braindead 3,385,255 2,926 - 17 - 0 - 2 - 5 1,772 2023-08-19 12:02:24
5 DsMaxInkd [PB] 2,772,155 3,856 - 114 - 15 - 30 - 26 629 2023-08-19 11:57:35
34 Extratone Firestorm 4,199,270 3,275 - 42 - 8 - 9 - 9 2,389 2023-08-19 11:53:05
19 Braindead 3,737,000 2,529 - 10 - 0 - 2 - 4 2,344 2023-08-19 11:49:23
21 Braindead 1,381,225 887 - 5 - 0 - 0 - 0 892 2023-08-19 11:44:50
10 VIS::CRACKED v2 [FC] [PB] 4,563,590 2,941 - 4 - 0 - 0 - 3 2,945 2023-08-19 11:41:12
27 Blue Streaks of Happiness [SR] 1,628,600 1,339 - 40 - 2 - 6 - 5 883 2023-08-19 11:37:39
17 DsMaxInkd [SR] 1,722,245 2,236 - 43 - 6 - 11 - 15 484 2023-08-19 11:35:41
21 Braindead 2,850,830 2,394 - 10 - 0 - 2 - 0 1,532 2023-08-19 11:33:17
6 Dark Side [FC] [SR] 3,876,980 2,498 - 4 - 0 - 0 - 1 2,502 2023-08-19 11:28:49
13 Braindead 3,443,670 2,520 - 12 - 2 - 2 - 6 2,055 2023-08-18 13:15:13
14 Braindead 3,233,135 2,152 - 14 - 1 - 1 - 3 2,046 2023-08-18 13:09:26
13 Braindead 2,721,935 2,543 - 7 - 0 - 2 - 1 1,322 2023-08-18 13:02:26
3 Braindead [SR] 3,007,830 3,433 - 6 - 0 - 3 - 2 1,119 2023-08-18 12:58:23
37 POWA OF DA WILDANES 2,039,165 1,444 - 11 - 6 - 1 - 4 1,242 2023-08-17 13:05:07
38 VIS::CRACKED v2 1,179,880 1,088 - 4 - 0 - 2 - 0 581 2023-08-17 13:03:28
37 VIS::CRACKED v2 2,058,715 1,951 - 7 - 0 - 4 - 1 985 2023-08-16 12:43:30
29 VIS::CRACKED v2 3,697,225 2,381 - 11 - 0 - 1 - 2 2,385 2023-08-14 15:18:34
42 VIS::CRACKED v2 372,990 245 - 2 - 0 - 1 - 0 238 2023-08-14 15:14:49
390 Isometry 26,350 17 - 0 - 0 - 0 - 0 17 2023-08-14 15:12:10
49 O Wings that Embrace Senju Banmei 797,590 517 - 2 - 0 - 1 - 0 513 2023-08-14 15:11:13
69 44 Edit v2 123,725 79 - 1 - 0 - 0 - 0 80 2023-08-14 15:09:49
122 res extensa 645,525 414 - 3 - 0 - 0 - 0 417 2023-08-14 15:09:19
17 POWA OF DA WILDANES [PB] 4,142,245 3,791 - 48 - 11 - 11 - 10 2,047 2023-08-14 15:07:46
144 Wanderflux 3,962,805 2,919 - 6 - 1 - 1 - 2 2,356 2023-08-14 15:03:39
28 VIS::CRACKED v2 3,052,025 2,439 - 7 - 0 - 1 - 2 1,709 2023-08-14 14:58:36
10 VIS::CRACKED v2 [PB] 2,943,115 2,930 - 12 - 1 - 2 - 6 1,329 2023-08-14 14:55:12
12 VIS::CRACKED v2 3,342,530 2,921 - 19 - 1 - 4 - 3 1,732 2023-08-14 14:51:33
34 POWA OF DA WILDANES [SR] 1,434,610 1,154 - 22 - 2 - 7 - 4 796 2023-08-12 14:10:52
7 VIS::CRACKED v2 [FC] [PB] 4,557,520 2,919 - 26 - 0 - 0 - 4 2,945 2023-08-12 14:08:22
8 VIS::CRACKED v2 [SR] 2,957,280 2,923 - 18 - 0 - 4 - 4 1,346 2023-08-12 14:05:10
10 O Wings that Embrace Senju Banmei [SR] 2,212,045 1,821 - 3 - 0 - 1 - 1 1,210 2023-08-12 14:01:25
58 Illegal Trap [1.2x] 372,335 323 - 7 - 0 - 4 - 0 194 2023-08-03 13:37:14
61 Illegal Trap [1.2x] 108,225 73 - 1 - 0 - 20 - 0 74 2023-08-03 13:36:33
301 That's Gonna Be 650,510 547 - 6 - 0 - 3 - 3 349 2023-08-03 13:34:56
516 Extratone Firestorm 738,445 505 - 11 - 0 - 1 - 1 458 2023-08-03 13:34:15
29 dreamless wanderer 2,423,615 2,172 - 29 - 2 - 3 - 7 1,222 2023-08-03 13:29:41
8 dreamless wanderer 3,241,690 3,634 - 34 - 10 - 5 - 18 1,235 2023-08-03 13:27:04
9 dreamless wanderer 3,316,780 3,606 - 64 - 6 - 7 - 14 1,318 2023-08-03 13:23:04
29 Illegal Trap [1.2x] 2,882,000 2,297 - 12 - 2 - 2 - 7 1,616 2023-08-03 13:14:58
58 Nhelv [1.3x] 1,773,665 1,992 - 36 - 1 - 9 - 5 671 2023-08-03 13:12:25
93 Mike French Hardcore Custom [1.3x] 1,292,260 924 - 39 - 5 - 6 - 4 775 2023-08-03 13:09:47
74 Angel's Salad [1.3x] 1,592,945 1,756 - 18 - 3 - 9 - 9 625 2023-08-03 13:08:29
361 Break [1.4x] 347,770 302 - 13 - 3 - 3 - 7 179 2023-08-03 13:06:22
140 SHIND BAD [1.4x] 1,244,215 1,280 - 10 - 1 - 5 - 2 539 2023-08-03 13:05:38
31 dreamless wanderer 1,323,425 1,267 - 19 - 2 - 2 - 7 622 2023-08-02 12:35:07
8 dreamless wanderer 4,027,625 3,622 - 44 - 11 - 6 - 16 2,025 2023-08-02 12:33:06
30 END OF SYSTEM 2,717,140 2,542 - 12 - 0 - 4 - 1 1,317 2023-08-02 12:28:37
31 dreamless wanderer 1,378,705 1,274 - 8 - 1 - 7 - 4 678 2023-08-02 12:21:27
32 dreamless wanderer 1,626,060 1,069 - 10 - 0 - 2 - 1 1,036 2023-08-02 12:19:44
6 dreamless wanderer [PB] 3,709,030 3,640 - 34 - 2 - 7 - 13 1,700 2023-08-02 12:14:53
8 dreamless wanderer 2,936,230 3,613 - 58 - 6 - 6 - 17 935 2023-08-02 12:11:18
176 Mondo Brutale 693,460 667 - 18 - 0 - 4 - 5 323 2023-08-02 12:06:37
58 Super wild! Survival Zundoko-chan [1.7x] 1,278,470 1,595 - 70 - 4 - 13 - 11 386 2023-08-02 12:04:44
76 Super wild! Survival Zundoko-chan [1.75x] 222,315 154 - 7 - 0 - 1 - 0 136 2023-08-02 12:03:12
387 Isometry [1.6x] 31,000 20 - 0 - 0 - 0 - 0 20 2023-08-02 12:02:26
332 Eternal Peace Is Nothing But An Illusion [1.6x] 1,551,430 1,501 - 31 - 1 - 8 - 11 720 2023-08-02 12:01:10
35 Slash Dot Slash (Slim boy fat) [1.2x] 2,707,515 3,080 - 9 - 0 - 6 - 5 1,013 2023-08-02 11:59:11
43 Nhelv [1.2x] 2,057,480 2,178 - 20 - 0 - 6 - 3 856 2023-08-02 11:55:18
74 Nhelv [1.2x] 425,565 340 - 3 - 0 - 4 - 1 239 2023-08-02 11:52:38
67 Nhelv [1.2x] 1,536,110 987 - 13 - 1 - 1 - 3 990 2023-08-02 11:51:55
77 Nhelv [1.2x] 44,950 29 - 0 - 0 - 0 - 0 29 2023-08-02 11:50:31
7 dreamless wanderer 3,079,540 3,607 - 58 - 4 - 14 - 7 1,084 2023-07-30 12:16:55
52 Endymion 1,042,845 669 - 3 - 2 - 0 - 2 674 2023-07-30 11:29:12
28 Endymion 2,300,305 2,077 - 8 - 1 - 4 - 3 1,157 2023-07-30 11:27:57
534 Casino Fire Kotomi-chan [1.5x] 498,925 388 - 18 - 5 - 2 - 4 281 2023-07-30 11:25:20
35 Illegal Trap [1.2x] 916,540 837 - 16 - 2 - 4 - 4 453 2023-07-30 11:24:31
25 Illegal Trap [1.2x] 1,739,585 2,258 - 44 - 3 - 8 - 5 488 2023-07-30 11:23:10
84 Zygourous Distribution 2,063,360 2,234 - 34 - 4 - 9 - 6 828 2023-07-29 13:26:41
11 dreamless wanderer 3,415,570 2,686 - 48 - 2 - 6 - 9 1,927 2023-07-29 13:18:27
16 dreamless wanderer 1,955,600 1,347 - 23 - 3 - 2 - 6 1,209 2023-07-29 13:15:41
16 dreamless wanderer 1,514,545 1,344 - 19 - 2 - 3 - 3 771 2023-07-29 13:14:06
12 dreamless wanderer 1,286,065 1,087 - 9 - 0 - 4 - 1 687 2023-07-28 12:40:20
14 dreamless wanderer 871,245 565 - 3 - 0 - 1 - 1 560 2023-07-28 12:38:51
15 dreamless wanderer 545,450 354 - 4 - 0 - 1 - 2 350 2023-07-28 12:37:48
12 dreamless wanderer 1,660,765 1,073 - 8 - 1 - 2 - 1 1,069 2023-07-28 12:37:10
3 dreamless wanderer 3,082,430 3,621 - 51 - 1 - 10 - 5 1,080 2023-07-28 12:34:04
12 dreamless wanderer 1,780,310 1,281 - 10 - 0 - 3 - 3 1,074 2023-07-28 12:30:05
9 dreamless wanderer 3,178,860 2,420 - 49 - 3 - 2 - 8 1,835 2023-07-28 12:26:02
12 dreamless wanderer 1,388,905 1,238 - 23 - 8 - 2 - 7 702 2023-07-28 12:23:08
11 dreamless wanderer 2,022,360 1,948 - 19 - 7 - 5 - 5 947 2023-07-28 12:21:22
2 dreamless wanderer [SR] 3,045,110 3,628 - 46 - 6 - 3 - 17 1,038 2023-07-28 12:18:13
6 Illegal Trap [FC] [SR] 3,585,130 2,313 - 0 - 0 - 0 - 1 2,313 2023-07-28 12:12:56
14 Unwelcome School (t+pazolite Remix) [1.7x] 1,472,415 1,219 - 29 - 0 - 3 - 4 795 2023-07-28 12:10:06
274 Brrrreeed Cicadididi 2,101,955 1,352 - 5 - 0 - 0 - 1 1,357 2023-07-27 14:43:43
15 Nhelv [SR] 2,916,340 2,203 - 0 - 0 - 1 - 0 1,705 2023-07-27 14:34:25
10 END OF SYSTEM [PB] 3,098,700 2,656 - 8 - 2 - 1 - 5 1,636 2023-07-27 14:13:36
42 END OF SYSTEM 2,188,970 1,578 - 16 - 0 - 1 - 1 1,317 2023-07-27 14:10:37
45 END OF SYSTEM 1,840,990 1,245 - 4 - 0 - 6 - 0 1,157 2023-07-27 14:08:53
13 END OF SYSTEM 2,738,130 2,630 - 30 - 2 - 5 - 9 1,285 2023-07-27 14:07:20
10 END OF SYSTEM 2,155,195 2,641 - 19 - 2 - 5 - 7 699 2023-07-23 12:42:54
10 END OF SYSTEM 3,094,615 2,644 - 18 - 3 - 2 - 4 1,636 2023-07-23 12:39:52
397 Extratone Firestorm 949,705 885 - 15 - 2 - 4 - 2 460 2023-07-22 09:05:17
26 res extensa [PB] 2,467,805 3,355 - 126 - 21 - 31 - 32 597 2023-07-22 09:03:45
234 Isometry 725,110 464 - 4 - 2 - 4 - 3 470 2023-07-22 09:01:10
7 END OF SYSTEM 3,462,495 2,645 - 16 - 1 - 5 - 8 2,005 2023-07-21 13:43:26
7 END OF SYSTEM 2,387,520 2,642 - 17 - 1 - 7 - 7 932 2023-07-21 12:49:23
14 END OF SYSTEM 1,825,720 1,623 - 11 - 1 - 3 - 4 931 2023-07-21 12:46:31
14 END OF SYSTEM 2,636,035 1,712 - 11 - 2 - 2 - 4 1,692 2023-07-21 12:44:36
6 END OF SYSTEM [PB] 2,896,830 2,645 - 17 - 3 - 2 - 7 1,438 2023-07-21 12:39:50
14 END OF SYSTEM 2,134,745 1,482 - 11 - 2 - 1 - 9 1,317 2023-07-21 12:36:45
7 END OF SYSTEM 2,765,430 2,629 - 26 - 6 - 6 - 7 1,314 2023-07-21 12:34:29
6 END OF SYSTEM [SR] 2,758,455 2,644 - 15 - 2 - 6 - 6 1,302 2023-07-21 12:30:54
22 Nhelv [1.2x] 2,831,350 1,819 - 15 - 3 - 1 - 4 1,827 2023-07-21 12:27:54
18 Nhelv [1.2x] 2,252,560 2,182 - 19 - 1 - 2 - 10 1,048 2023-07-21 12:25:34
19 Nhelv [1.2x] 2,333,615 2,174 - 25 - 2 - 3 - 7 1,132 2023-07-21 12:23:06
901 Staple on Smile 1,463,100 939 - 6 - 0 - 0 - 0 945 2023-07-20 15:19:03
440 Violent Arcade 741,665 492 - 5 - 0 - 1 - 0 470 2023-07-20 15:17:45
125 res extensa 438,825 279 - 5 - 0 - 0 - 0 284 2023-07-20 15:16:56
996 Hello (BPM) 2021 381,035 226 - 20 - 5 - 0 - 2 251 2023-07-20 15:16:23
1,602 Undici 2,579,865 1,656 - 10 - 1 - 2 - 6 1,667 2023-07-20 15:15:56
187 Neko Nadetai 82,555 57 - 3 - 0 - 2 - 0 51 2023-07-20 15:13:47
357 That's Gonna Be 474,235 302 - 4 - 1 - 0 - 1 307 2023-07-20 15:13:34
362 That's Gonna Be 454,880 293 - 4 - 0 - 1 - 3 293 2023-07-20 15:12:55
362 That's Gonna Be 464,165 294 - 5 - 2 - 0 - 1 301 2023-07-20 15:12:30
323 That's Gonna Be 629,890 400 - 8 - 0 - 1 - 0 408 2023-07-20 15:12:01
326 That's Gonna Be 627,275 396 - 11 - 2 - 2 - 2 407 2023-07-20 15:11:34
412 That's Gonna Be 323,140 207 - 1 - 1 - 0 - 2 209 2023-07-20 15:10:39
294 That's Gonna Be 739,945 601 - 7 - 2 - 2 - 1 408 2023-07-20 15:10:13
33 That's Gonna Be 2,272,805 2,247 - 18 - 1 - 3 - 6 1,033 2023-07-20 15:09:14
557 That's Gonna Be 15,500 11 - 0 - 0 - 5 - 0 11 2023-07-20 15:05:44
389 Zygourous Distribution 857,975 554 - 2 - 1 - 1 - 1 553 2023-07-18 13:20:30
708 Tachyon Beam Cannon 249,245 163 - 7 - 0 - 1 - 1 158 2023-07-18 13:19:48
482 Tachyon Beam Cannon 822,705 534 - 5 - 0 - 1 - 3 528 2023-07-18 13:19:37
1,021 Hello (BPM) 2021 234,775 218 - 10 - 1 - 3 - 0 113 2023-07-18 13:18:44
925 Hello (BPM) 2021 431,435 291 - 11 - 0 - 2 - 1 269 2023-07-18 13:18:16
115 F.F.R ~FINAL FRONTIER RESOLUTION~ 1,256,925 818 - 5 - 0 - 1 - 2 806 2023-07-18 13:17:44
411 We Want To Run 2,625,135 1,923 - 15 - 0 - 2 - 1 1,564 2023-07-18 13:16:06
181 J-CORE SLi//CER Technique [PB] 2,828,975 1,829 - 5 - 0 - 1 - 2 1,822 2023-07-18 13:11:10
29 floating point (Drumcorps Remix) [PB] 4,121,015 2,695 - 8 - 1 - 1 - 9 2,637 2023-07-18 13:07:52
24 Neko Nadetai [PB] 2,353,030 1,909 - 9 - 1 - 1 - 7 1,301 2023-07-18 13:02:45
97 Revenge (ReeK's "Dude, What's A Genre?" Remix) 3,951,480 3,541 - 20 - 2 - 2 - 3 1,999 2023-07-18 13:00:11
162 I'm A Fucking Idiot 3,458,775 2,222 - 16 - 1 - 2 - 8 2,233 2023-07-18 12:55:24
197 LWVIIX (Lawn Wake 69) 1,078,110 718 - 17 - 5 - 2 - 6 679 2023-07-18 12:43:15
138 Bolt Thrower In A Chinese Restaurant 2,575,520 2,835 - 40 - 8 - 13 - 7 1,009 2023-07-18 12:42:00
141 Starflight 2,617,895 1,683 - 18 - 1 - 2 - 7 1,688 2023-07-18 12:38:30
36 Undici 4,726,505 3,286 - 38 - 13 - 2 - 17 2,909 2023-07-18 12:36:11
688 Extratone Firestorm 248,645 166 - 1 - 0 - 3 - 0 158 2023-07-18 12:32:35
223 Undici 3,566,915 2,908 - 31 - 4 - 3 - 15 1,960 2023-07-18 12:31:43
131 Track title 2,857,620 1,834 - 11 - 1 - 0 - 8 1,846 2023-07-18 12:27:48
8 Symphonies Of Suckness [FC] [PB] 4,702,815 3,030 - 5 - 0 - 0 - 3 3,035 2023-07-18 12:23:33
681 Powerflux 2,200,250 1,408 - 14 - 0 - 0 - 0 1,422 2023-07-18 12:19:13
123 brute force 1,827,510 1,619 - 5 - 1 - 1 - 3 936 2023-07-18 12:16:57
222 brute force 712,395 459 - 1 - 0 - 1 - 1 460 2023-07-18 12:15:20
67 Time Signature 421,015 310 - 6 - 5 - 1 - 5 249 2023-07-18 12:14:37
9 Offset Packed [PB] 4,933,465 4,175 - 7 - 2 - 2 - 10 2,636 2023-07-18 12:11:14
25 Gamma Stop Sending Me Ratchet and Clank Videos to Sample [PB] 4,059,970 4,006 - 33 - 5 - 4 - 22 1,849 2023-07-18 12:05:34
233 toromi hearts 2 [1.4x] 894,055 805 - 10 - 3 - 5 - 3 450 2023-07-18 12:01:02
1,059 Zombie Sunset [1.4x] 2,094,265 1,666 - 10 - 3 - 3 - 1 1,176 2023-07-18 11:59:44
83 how things went wrong [1.4x] 82,410 47 - 8 - 0 - 2 - 1 55 2023-07-18 11:57:44
231 Nageki no mori (Breakcore Remix) [1.4x] 732,310 680 - 25 - 9 - 6 - 10 353 2023-07-18 11:57:26
52 Slash Dot Slash (Slim boy fat) [1.4x] 1,490,695 1,711 - 43 - 14 - 5 - 20 539 2023-07-18 11:56:03
984 thinking of you [1.4x] 1,206,940 1,242 - 62 - 6 - 14 - 10 511 2023-07-18 11:54:16
77 Black in the Burn [1.6x] 303,335 272 - 5 - 0 - 2 - 1 153 2023-07-18 11:52:58
52 Super wild! Survival Zundoko-chan [1.6x] 1,849,415 1,680 - 44 - 9 - 6 - 16 915 2023-07-18 11:51:48
38 44 Edit v2 1,504,875 1,187 - 5 - 0 - 1 - 2 851 2023-07-17 09:57:11
108 F.F.R ~FINAL FRONTIER RESOLUTION~ 937,135 947 - 7 - 0 - 2 - 1 415 2023-07-17 09:55:37
28 F.F.R ~FINAL FRONTIER RESOLUTION~ 2,253,055 2,749 - 38 - 5 - 8 - 7 733 2023-07-17 09:53:40
157 Apologize [1.2x] 1,210,955 923 - 12 - 1 - 3 - 6 701 2023-07-17 09:50:40
53 Celsus v2 [1.2x] 1,368,210 884 - 6 - 0 - 2 - 1 881 2023-07-17 09:49:28
63 A Battle I Absolutely Can't Lose ~ Kill the Nyanko [1.2x] 1,154,255 751 - 15 - 0 - 6 - 3 739 2023-07-17 09:48:36
24,172 Death Piano 988,430 649 - 14 - 0 - 1 - 3 628 2023-07-16 15:09:28
4,548 Fireball 311,615 207 - 11 - 0 - 4 - 1 196 2023-07-16 15:08:18
908 Tachyon Beam Cannon 77,395 46 - 4 - 1 - 0 - 3 51 2023-07-16 15:07:52
835 Tachyon Beam Cannon 144,275 98 - 6 - 1 - 1 - 1 89 2023-07-16 15:07:39
36 Endymion 2,027,360 1,578 - 4 - 0 - 2 - 1 1,159 2023-07-16 15:06:34
26 Endymion 2,161,235 1,952 - 9 - 2 - 9 - 8 1,088 2023-07-16 15:04:15
43 Endymion 963,310 620 - 1 - 1 - 0 - 1 622 2023-07-16 15:02:27
43 Endymion 890,715 574 - 0 - 1 - 0 - 2 575 2023-07-16 15:01:48
179 Radiata (The Quick Brown Fox 'UV' RMX) 833,050 651 - 1 - 1 - 1 - 1 475 2023-07-16 15:00:59
8,811 Reluctantly Accepting Temporary Overexhaustion 1,274,660 818 - 8 - 4 - 2 - 2 823 2023-07-16 14:59:39
13,670 Reluctantly Accepting Temporary Overexhaustion 811,080 525 - 2 - 2 - 1 - 1 522 2023-07-16 14:58:39
289 Reluctantly Accepting Temporary Overexhaustion 1,680,500 1,526 - 15 - 3 - 3 - 8 838 2023-07-16 14:58:02
128 Reluctantly Accepting Temporary Overexhaustion 1,645,905 1,573 - 23 - 2 - 2 - 3 775 2023-07-16 14:56:26
80 Reluctantly Accepting Temporary Overexhaustion [PB] 1,971,755 1,584 - 14 - 1 - 1 - 2 1,097 2023-07-16 14:54:29
446 Violent Arcade 732,315 476 - 3 - 0 - 1 - 0 470 2023-07-16 14:52:33
13 PEACE BREAKER [PB] 3,306,195 3,609 - 8 - 1 - 3 - 4 1,320 2023-07-16 14:50:12
64 PEACE BREAKER 3,829,840 3,413 - 13 - 3 - 3 - 6 1,950 2023-07-16 14:46:17
481 Wanderflux 842,890 544 - 2 - 0 - 6 - 0 545 2023-07-16 14:42:45
230 Starflight 1,733,630 1,121 - 5 - 1 - 1 - 2 1,116 2023-07-16 14:41:39
21 Starflight [PB] 3,351,270 2,481 - 26 - 6 - 2 - 7 1,980 2023-07-16 14:39:34
175 LWVIIX (Lawn Wake 69) 970,365 963 - 25 - 4 - 4 - 7 435 2023-07-16 14:36:29
74 eXXXcaliborg.Error [PB] 1,380,335 1,586 - 21 - 4 - 6 - 5 504 2023-07-16 14:35:27
1,212 Crystal Chamber Combustion (bike) 260,465 161 - 19 - 0 - 1 - 0 167 2023-07-16 14:34:15
112 res extensa 657,400 427 - 3 - 1 - 1 - 1 422 2023-07-16 14:33:46
901 Hello (BPM) 2021 359,260 309 - 10 - 4 - 2 - 2 187 2023-07-16 14:33:21
33 Zygourous Distribution 2,522,585 2,511 - 34 - 7 - 6 - 17 1,134 2023-07-16 14:32:41
496 Extratone Firestorm 850,530 551 - 4 - 0 - 2 - 0 547 2023-07-16 14:30:24
27 Extratone Firestorm [PB] 3,350,530 3,288 - 31 - 7 - 8 - 15 1,536 2023-07-16 14:29:28
471 That's Gonna Be 184,175 118 - 1 - 0 - 0 - 0 119 2023-07-16 14:26:20
281 That's Gonna Be 1,083,265 708 - 8 - 1 - 1 - 4 692 2023-07-16 14:26:07
145 Neko Nadetai 922,915 602 - 10 - 1 - 3 - 3 590 2023-07-16 14:24:42
183 Neko Nadetai 107,075 62 - 7 - 2 - 0 - 3 71 2023-07-16 14:23:50
187 Neko Nadetai 89,910 60 - 2 - 0 - 2 - 1 57 2023-07-16 14:23:43
25 Neko Nadetai [PB] 2,849,890 1,904 - 12 - 2 - 2 - 5 1,800 2023-07-16 14:22:14
36 44 Edit v2 2,584,380 1,664 - 9 - 1 - 1 - 2 1,667 2023-07-16 14:20:03
34 44 Edit v2 3,409,495 2,256 - 6 - 1 - 3 - 4 2,168 2023-07-16 14:17:38
6 44 Edit v2 [PB] 4,614,965 3,122 - 12 - 1 - 1 - 9 2,895 2023-07-16 14:13:23
41 44 Edit v2 1,378,995 890 - 3 - 0 - 1 - 1 889 2023-07-16 14:09:20
8 44 Edit v2 3,196,515 3,119 - 14 - 1 - 2 - 11 1,478 2023-07-16 14:06:32
16 F.F.R ~FINAL FRONTIER RESOLUTION~ [PB] 2,979,670 2,771 - 24 - 2 - 3 - 8 1,450 2023-07-16 13:59:55
16 F.F.R ~FINAL FRONTIER RESOLUTION~ [PB] 2,590,635 2,774 - 19 - 0 - 7 - 6 1,062 2023-07-16 13:56:20
22 F.F.R ~FINAL FRONTIER RESOLUTION~ 2,232,475 2,766 - 27 - 0 - 7 - 4 706 2023-07-16 13:53:08
121 F.F.R ~FINAL FRONTIER RESOLUTION~ 1,007,675 726 - 6 - 1 - 1 - 1 607 2023-07-16 13:50:11
1,108 thinking of you [1.2x] 1,245,040 800 - 4 - 0 - 0 - 3 804 2023-07-16 13:47:53
56 Slash Dot Slash (Slim boy fat) [1.2x] 2,045,455 1,316 - 11 - 0 - 1 - 3 1,319 2023-07-16 13:46:45
62 Slash Dot Slash (Slim boy fat) [1.2x] 803,955 510 - 10 - 1 - 1 - 2 521 2023-07-16 13:45:25
62 Slash Dot Slash (Slim boy fat) [1.2x] 830,435 527 - 10 - 3 - 1 - 1 538 2023-07-16 13:44:47
52 A Battle I Absolutely Can't Lose ~ Kill the Nyanko [1.2x] 1,839,865 1,199 - 27 - 0 - 3 - 4 1,174 2023-07-16 13:44:04
878 Gate Openerz [1.55x] 704,220 679 - 16 - 6 - 6 - 5 328 2023-07-16 13:42:10
326 Eternal Peace Is Nothing But An Illusion [1.55x] 1,908,850 1,513 - 40 - 4 - 4 - 14 1,067 2023-07-16 13:40:23
369 Zygourous Distribution 931,450 598 - 3 - 1 - 1 - 1 602 2023-07-15 12:35:38
188 Fury 1,840,020 1,305 - 8 - 0 - 3 - 0 1,121 2023-07-15 12:33:54
15 Real Ultimate Power [FC] 3,190,320 2,052 - 6 - 2 - 0 - 2 2,060 2023-07-15 12:26:24
104 Real Ultimate Power 1,936,125 1,245 - 5 - 0 - 0 - 0 1,250 2023-07-15 12:23:37
16 Real Ultimate Power 2,262,370 2,052 - 5 - 1 - 2 - 2 1,133 2023-07-15 12:21:35
8 44 Edit v2 2,948,955 3,109 - 23 - 0 - 4 - 4 1,234 2023-07-15 12:08:20
32 Endymion 2,571,055 1,653 - 9 - 2 - 2 - 3 1,660 2023-07-15 12:00:27
103 Delirium v2 [1.2x] 833,960 538 - 6 - 0 - 5 - 2 538 2023-07-15 11:58:18
36 Slash Dot Slash (Slim boy fat) [1.2x] 2,746,355 3,061 - 27 - 2 - 5 - 9 1,057 2023-07-15 11:57:08
17 44 Edit v2 3,315,625 2,147 - 20 - 1 - 2 - 8 2,130 2023-07-14 12:17:05
12 44 Edit v2 4,424,740 2,962 - 30 - 2 - 2 - 5 2,788 2023-07-14 12:02:46
5 44 Edit v2 [FC] [PB] 4,854,705 3,115 - 20 - 1 - 0 - 5 3,136 2023-07-14 11:53:59
16 44 Edit v2 2,244,230 1,440 - 8 - 2 - 0 - 4 1,450 2023-07-14 11:46:05
16 44 Edit v2 2,142,050 1,386 - 4 - 0 - 1 - 2 1,379 2023-07-14 11:43:26
12 44 Edit v2 3,566,975 2,939 - 20 - 1 - 3 - 5 1,946 2023-07-14 11:41:08
16 44 Edit v2 1,503,535 1,118 - 1 - 0 - 2 - 1 889 2023-07-14 11:36:17
5 44 Edit v2 [PB] 3,178,030 3,116 - 18 - 0 - 2 - 5 1,460 2023-07-14 11:32:50
15 44 Edit v2 [SR] 1,580,715 1,057 - 11 - 0 - 2 - 2 997 2023-07-14 11:28:37
906 Playing Super Mario World While Taking Mushrooms [1.2x] 1,582,620 1,816 - 22 - 2 - 4 - 5 579 2023-07-14 11:22:30
213 Excuse My Rudeness, but Could You Please RIP? (t+pazolite Remix) [1.2x] 1,646,250 1,526 - 14 - 0 - 6 - 2 805 2023-07-14 11:20:21
92 Tanaka [1.2x] 2,396,695 1,676 - 28 - 9 - 4 - 3 1,468 2023-07-14 11:18:20
662 thinking of you [1.2x] 2,575,190 2,011 - 26 - 0 - 3 - 4 1,463 2023-07-14 11:15:51
52 Slash Dot Slash (Slim boy fat) [1.2x] 2,296,915 1,765 - 17 - 2 - 2 - 0 1,322 2023-07-14 11:13:35
56 Slash Dot Slash (Slim boy fat) [1.2x] 1,709,975 1,376 - 11 - 4 - 3 - 7 951 2023-07-14 11:11:35
54 Slash Dot Slash (Slim boy fat) [SR] 2,185,950 1,407 - 4 - 0 - 0 - 0 1,411 2023-07-14 11:09:48
306 Zygourous Distribution 1,152,615 807 - 11 - 0 - 4 - 1 707 2023-07-09 11:53:47
978 Undici 2,286,235 1,942 - 15 - 2 - 6 - 12 1,216 2023-07-09 11:52:52
539 Wanderflux 603,480 390 - 2 - 0 - 5 - 1 390 2023-07-09 11:50:36
25 Endymion 2,326,500 1,647 - 8 - 2 - 2 - 2 1,419 2023-07-09 11:46:59
12 Endymion 1,939,390 2,421 - 32 - 2 - 13 - 2 603 2023-07-09 11:44:23
1,277 Ultrasounds! [1.4x] 615,050 394 - 12 - 0 - 3 - 1 396 2023-07-09 11:31:46
1,414 Ultrasounds! [1.4x] 422,065 320 - 5 - 0 - 1 - 0 245 2023-07-09 11:31:00
1,474 Ultrasounds! [1.4x] 278,640 212 - 2 - 0 - 21 - 0 168 2023-07-09 11:29:56
1,511 Ultrasounds! [1.4x] 167,865 162 - 2 - 1 - 22 - 1 85 2023-07-09 11:29:20
451 ULTRAnumb (Paul Udarov Remix) [2.2x] 271,200 312 - 20 - 4 - 10 - 1 97 2023-07-09 11:28:15
3,566 ULTRAnumb [2.2x] 283,090 264 - 12 - 0 - 11 - 0 138 2023-07-09 11:26:59
21 The One [FC] [SR] 1,889,175 1,218 - 1 - 0 - 0 - 0 1,219 2023-07-08 09:07:39
4,092 Fireball 346,745 272 - 9 - 0 - 1 - 1 195 2023-07-07 13:16:47
169 eXXXcaliborg.Error 289,540 191 - 0 - 0 - 21 - 0 191 2023-07-07 13:12:48
246 Isometry 608,860 394 - 2 - 0 - 1 - 4 392 2023-07-07 13:12:24
396 Extratone Firestorm 1,225,490 886 - 5 - 3 - 1 - 2 737 2023-07-07 13:10:47
911 Hello (BPM) 2021 428,430 302 - 9 - 3 - 1 - 0 260 2023-07-07 13:09:52
165 Fury 3,116,750 2,016 - 12 - 0 - 1 - 2 2,005 2023-07-07 13:07:57
171 Fury 2,059,715 1,840 - 5 - 0 - 2 - 2 1,047 2023-07-07 13:04:49
100 Gamma Stop Sending Me High Quality Rips 5,341,350 3,440 - 6 - 2 - 1 - 5 3,448 2023-07-07 13:00:50
14 Gamma Stop Sending Me High Quality Rips [FC] [PB] 5,732,010 3,690 - 9 - 1 - 0 - 1 3,700 2023-07-07 12:56:17
519 Gamma Stop Sending Me High Quality Rips 320,280 205 - 2 - 0 - 0 - 1 207 2023-07-07 12:52:27
281 Gamma Stop Sending Me High Quality Rips 1,604,650 1,040 - 0 - 0 - 1 - 2 1,033 2023-07-07 12:51:36
17 Gamma Stop Sending Me High Quality Rips 5,488,305 3,686 - 12 - 1 - 1 - 2 3,458 2023-07-07 12:50:02
198 Gamma Stop Sending Me High Quality Rips 3,507,365 2,268 - 5 - 0 - 1 - 5 2,259 2023-07-07 12:46:02
265 Gamma Stop Sending Me High Quality Rips 1,883,570 1,217 - 2 - 0 - 1 - 1 1,214 2023-07-07 12:43:43
19 Gamma Stop Sending Me High Quality Rips 5,557,295 3,684 - 12 - 3 - 1 - 3 3,528 2023-07-07 12:41:18
189 Fury 1,492,355 1,273 - 3 - 0 - 2 - 0 792 2023-07-07 12:37:06
255 Fury 872,245 566 - 1 - 0 - 1 - 1 561 2023-07-07 12:35:00
219 Fury 1,226,940 793 - 4 - 0 - 1 - 0 790 2023-07-07 12:33:10
211 Fury 1,270,740 870 - 2 - 0 - 1 - 0 792 2023-07-07 12:31:45
349 Fury 355,605 229 - 1 - 0 - 2 - 0 230 2023-07-07 12:30:34
171 Fury 2,878,405 1,848 - 11 - 0 - 0 - 1 1,859 2023-07-07 12:29:38
181 Fury 2,282,500 1,467 - 7 - 1 - 1 - 1 1,474 2023-07-07 12:26:37
243 LWVIIX (Lawn Wake 69) 635,985 436 - 3 - 0 - 2 - 1 396 2023-07-07 12:24:26
126 LWVIIX (Lawn Wake 69) 1,525,350 1,566 - 20 - 4 - 5 - 6 660 2023-07-07 12:23:11
15 Endymion 2,188,390 1,412 - 4 - 0 - 1 - 0 1,411 2023-07-07 12:20:44
739 Hello (BPM) 2021 405,255 451 - 11 - 2 - 3 - 0 155 2023-07-07 12:19:05
172 Extratone Firestorm 2,296,735 2,465 - 40 - 5 - 7 - 6 932 2023-07-07 12:17:24
554 Extratone Firestorm 558,175 356 - 5 - 0 - 0 - 0 361 2023-07-07 12:14:03
420 Extratone Firestorm 1,250,995 807 - 10 - 1 - 2 - 2 805 2023-07-07 12:12:44
498 Extratone Firestorm 848,795 548 - 6 - 1 - 1 - 0 546 2023-07-07 12:09:54
5 Endymion [PB] 3,763,045 2,462 - 5 - 0 - 1 - 6 2,408 2023-07-07 12:00:32
7 99.9 (Eurobeat Remix) [FC] [PB] 4,074,400 2,627 - 2 - 0 - 0 - 0 2,629 2023-07-07 11:56:09
7 99.9 (Eurobeat Remix) [FC] [PB] 4,074,125 2,626 - 3 - 0 - 0 - 0 2,629 2023-07-07 11:52:10
11 99.9 (Eurobeat Remix) 3,861,585 2,617 - 9 - 2 - 1 - 2 2,420 2023-07-07 11:49:08
10 99.9 (Eurobeat Remix) [FC] [SR] 4,071,590 2,617 - 12 - 0 - 0 - 3 2,629 2023-07-07 11:46:17
7 Endymion 2,922,020 2,433 - 19 - 5 - 11 - 11 1,582 2023-07-07 11:42:20
11 Endymion 2,860,775 2,238 - 32 - 3 - 3 - 8 1,622 2023-07-07 11:39:44
15 Endymion 729,535 470 - 0 - 1 - 0 - 1 471 2023-07-07 11:35:45
5 Endymion [SR] 3,594,420 2,447 - 18 - 2 - 1 - 9 2,244 2023-07-07 11:35:10
205 Extratone Firestorm 2,403,670 2,302 - 38 - 4 - 6 - 12 1,129 2023-07-06 12:31:59
71 F.F.R ~FINAL FRONTIER RESOLUTION~ 1,869,355 2,058 - 21 - 0 - 4 - 4 733 2023-07-06 12:29:48
124 Gamma Stop Sending Me High Quality Rips 4,999,460 3,227 - 7 - 1 - 1 - 3 3,223 2023-07-05 11:47:22
328 Gamma Stop Sending Me High Quality Rips 1,032,750 663 - 4 - 0 - 0 - 0 667 2023-07-05 11:44:07
77 Gamma Stop Sending Me High Quality Rips 4,578,860 3,531 - 16 - 2 - 2 - 4 2,633 2023-07-05 11:42:46
356 Wanderflux 2,414,485 1,546 - 11 - 4 - 0 - 3 1,561 2023-07-05 11:38:29
437 Wanderflux 1,238,605 797 - 2 - 1 - 1 - 2 800 2023-07-05 11:36:57
478 Wanderflux 855,310 551 - 3 - 1 - 2 - 0 552 2023-07-05 11:36:08
514 Wanderflux 695,675 448 - 1 - 0 - 0 - 0 449 2023-07-05 11:35:38
473 Wanderflux 888,910 572 - 1 - 1 - 0 - 1 574 2023-07-05 11:35:13
473 Wanderflux 860,775 570 - 2 - 1 - 1 - 1 547 2023-07-05 11:34:13
144 F.F.R ~FINAL FRONTIER RESOLUTION~ 697,215 455 - 1 - 0 - 1 - 0 447 2023-07-05 11:33:10
192 Ra Variationen 912,420 716 - 2 - 0 - 3 - 0 519 2023-07-05 11:32:27
215 Ra Variationen 819,815 546 - 3 - 0 - 1 - 0 519 2023-07-05 11:31:42
28 Celsus v2 [1.2x] 3,042,780 1,969 - 8 - 0 - 1 - 3 1,958 2023-07-05 11:30:30
20 Celsus v2 [1.2x] 2,262,710 2,030 - 14 - 0 - 2 - 1 1,143 2023-07-05 11:28:13
19 Celsus v2 [1.2x] 2,192,600 2,033 - 10 - 2 - 1 - 5 1,072 2023-07-05 11:25:30
457 Forgotten [1.2x] 463,550 487 - 6 - 0 - 3 - 1 195 2023-07-05 11:23:27
1,061 WANDERLUST [1.2x] 1,155,210 1,031 - 16 - 0 - 4 - 0 585 2023-07-05 11:22:36
30 Slash Dot Slash (Slim boy fat) [1.2x] 4,750,030 3,046 - 44 - 4 - 1 - 14 3,063 2023-07-05 11:20:44
58 Slash Dot Slash (Slim boy fat) [1.2x] 37,855 24 - 1 - 0 - 2 - 0 25 2023-07-05 11:18:00
53 Slash Dot Slash (Slim boy fat) [1.2x] 857,195 640 - 15 - 0 - 3 - 0 502 2023-07-05 11:17:50
152 Writing On The Walls (Final Sketch Remix) [1.4x] 1,332,685 851 - 18 - 1 - 1 - 3 860 2023-07-04 08:45:23
1,135 My Fxxkin Desire For You [1.4x] 1,024,635 1,078 - 46 - 13 - 5 - 4 420 2023-07-04 08:44:20
96 res extensa 1,134,535 728 - 4 - 1 - 0 - 1 733 2023-07-02 12:55:33
297 Zygourous Distribution 1,343,260 863 - 7 - 1 - 1 - 3 867 2023-07-02 12:54:44
114 Offset Packed 790,555 522 - 3 - 0 - 1 - 3 503 2023-07-02 12:53:24
221 Ra Variationen 807,165 524 - 1 - 0 - 1 - 0 519 2023-07-02 12:51:56
22 Ra Variationen [PB] 3,590,685 4,373 - 31 - 2 - 6 - 12 1,179 2023-07-02 12:50:27
195 Ra Variationen 1,023,000 660 - 0 - 0 - 0 - 0 660 2023-07-02 12:44:37
22 Ra Variationen [PB] 3,617,980 4,370 - 34 - 2 - 6 - 6 1,207 2023-07-02 12:43:05
30 Track title [PB] 4,031,010 4,466 - 64 - 12 - 7 - 19 1,559 2023-07-02 12:37:53
44 Celsus v2 [1.25x] 907,415 690 - 13 - 0 - 2 - 2 525 2023-07-02 12:32:51
98 Delirium v2 [1.35x] 566,500 471 - 17 - 1 - 4 - 2 304 2023-07-02 12:31:59
193 Mike French Hardcore Custom [1.35x] 699,775 445 - 12 - 1 - 1 - 1 452 2023-07-02 12:31:24
56 The End of Dreams [1.45x] 1,982,890 2,323 - 67 - 5 - 10 - 18 690 2023-07-02 12:30:09
3,308 Megalovania [1.7x] 334,835 360 - 15 - 0 - 7 - 6 135 2023-07-02 12:27:42
236 Ani Mevushal [1.7x] 1,362,260 1,625 - 79 - 5 - 17 - 11 452 2023-07-02 12:25:57
53 POP/STARS v2 [1.7x] 982,730 1,322 - 60 - 6 - 16 - 12 244 2023-07-02 12:22:54
326 Swamp Thing [1.8x] 1,358,255 1,710 - 96 - 5 - 28 - 12 400 2023-07-02 12:20:21
40 Super wild! Survival Zundoko-chan [1.6x] 1,148,285 1,614 - 88 - 3 - 34 - 12 247 2023-07-02 12:18:09
143 eXXXcaliborg.Error 416,715 302 - 17 - 4 - 4 - 2 247 2023-07-02 11:41:20
347 Gamma Stop Sending Me High Quality Rips 916,515 589 - 2 - 1 - 0 - 2 592 2023-07-01 11:56:24
327 Gamma Stop Sending Me High Quality Rips 1,036,675 668 - 1 - 0 - 0 - 0 669 2023-07-01 11:55:04
158 Critical.Error 2,944,160 1,902 - 5 - 1 - 1 - 3 1,897 2023-07-01 11:53:31
20 Critical.Error [FC] [PB] 4,965,920 3,194 - 12 - 0 - 0 - 4 3,206 2023-07-01 11:48:46
60 The End of Dreams [1.45x] 1,174,565 1,218 - 25 - 0 - 7 - 2 500 2023-07-01 11:29:21
652 My Fxxkin Desire For You [1.35x] 1,839,035 1,293 - 31 - 0 - 2 - 1 1,120 2023-07-01 11:27:30
524 Casino Fire Kotomi-chan [1.35x] 656,390 422 - 9 - 3 - 1 - 2 422 2023-07-01 11:25:32
263 Casino Fire Kotomi-chan [1.35x] 1,086,490 1,188 - 36 - 0 - 9 - 1 426 2023-07-01 11:24:06
135 Prequel To The Sequel [1.6x] 1,128,785 730 - 7 - 0 - 2 - 1 726 2023-07-01 11:22:16
35 Super wild! Survival Zundoko-chan [1.6x] 1,123,115 1,606 - 66 - 7 - 18 - 7 227 2023-07-01 11:19:29
39 Super wild! Survival Zundoko-chan [1.6x] 778,565 840 - 21 - 6 - 8 - 3 313 2023-07-01 11:17:06
40 Super wild! Survival Zundoko-chan [1.6x] 473,935 356 - 24 - 3 - 5 - 4 273 2023-07-01 11:16:02
36 Super wild! Survival Zundoko-chan [1.6x] 973,335 1,333 - 65 - 12 - 23 - 11 229 2023-07-01 11:15:03
276 Tachyon Beam Cannon 1,819,385 1,201 - 13 - 0 - 2 - 6 1,156 2023-06-30 14:59:03
308 Tachyon Beam Cannon 1,666,080 1,069 - 12 - 4 - 1 - 4 1,075 2023-06-30 14:57:29
174 LWVIIX (Lawn Wake 69) 924,660 916 - 19 - 3 - 11 - 6 419 2023-06-30 14:55:48
110 Zygourous Distribution 1,528,380 1,956 - 41 - 3 - 12 - 7 445 2023-06-30 14:54:42
358 Zygourous Distribution 805,655 637 - 7 - 0 - 2 - 0 454 2023-06-30 12:01:45
114 F.F.R ~FINAL FRONTIER RESOLUTION~ 1,157,170 768 - 4 - 0 - 1 - 1 734 2023-06-30 11:54:50
290 Wanderflux 3,019,440 1,945 - 11 - 1 - 1 - 4 1,947 2023-06-30 11:52:04
354 Wanderflux 2,419,360 1,565 - 7 - 1 - 1 - 3 1,557 2023-06-30 11:49:09
4 sub/zero [FC] [PB] 4,697,755 3,030 - 1 - 0 - 0 - 1 3,031 2023-06-30 11:34:14
7 sub/zero [FC] [SR] 4,696,890 3,027 - 4 - 0 - 0 - 3 3,031 2023-06-30 11:28:07
160 Zygourous Distribution 1,473,790 1,664 - 29 - 9 - 12 - 8 554 2023-06-30 11:24:13
46 Slash Dot Slash (Slim boy fat) [1.4x] 431,335 339 - 8 - 1 - 1 - 3 243 2023-06-30 11:22:41
36 Slash Dot Slash (Slim boy fat) [1.4x] 1,953,715 2,706 - 111 - 24 - 25 - 34 442 2023-06-30 11:21:18
30 The End of Dreams [1.45x] 2,024,825 2,315 - 69 - 10 - 11 - 27 736 2023-06-30 11:17:55
30 The End of Dreams [1.45x] 1,779,610 2,322 - 59 - 5 - 19 - 5 492 2023-06-30 11:15:14
158 Comatose State 3,100 2 - 0 - 0 - 0 - 0 2 2023-06-29 14:44:23
275 Zygourous Distribution 1,427,030 985 - 14 - 2 - 2 - 3 882 2023-06-29 14:31:03
460 Violent Arcade 682,580 442 - 4 - 0 - 2 - 0 439 2023-06-29 14:29:03
170 Fury 2,062,485 1,844 - 7 - 0 - 2 - 1 1,047 2023-06-29 14:27:57
167 Fury 2,050,550 1,934 - 9 - 1 - 2 - 3 985 2023-06-29 14:25:07
128 PEACE BREAKER 2,050,500 1,315 - 8 - 2 - 0 - 3 1,325 2023-06-29 14:17:32
465 Wanderflux 962,300 618 - 1 - 3 - 0 - 2 622 2023-06-29 14:15:51
476 Wanderflux 849,490 556 - 0 - 0 - 1 - 0 544 2023-06-29 14:15:07
377 Wanderflux 2,073,145 1,403 - 3 - 0 - 1 - 1 1,301 2023-06-29 14:14:04
419 Wanderflux 1,526,015 990 - 3 - 0 - 1 - 0 981 2023-06-29 14:12:26
479 Wanderflux 847,465 550 - 1 - 0 - 1 - 0 545 2023-06-29 14:10:42
290 Wanderflux 3,025,560 1,948 - 9 - 1 - 1 - 3 1,952 2023-06-29 14:09:58
399 Gamma Stop Sending Me High Quality Rips 681,065 442 - 1 - 0 - 1 - 0 438 2023-06-29 14:07:52
333 Gamma Stop Sending Me High Quality Rips 972,465 627 - 1 - 0 - 2 - 2 628 2023-06-29 14:07:17
383 Gamma Stop Sending Me High Quality Rips 740,845 478 - 1 - 0 - 1 - 1 478 2023-06-29 14:06:29
259 Gamma Stop Sending Me High Quality Rips 1,989,540 1,283 - 8 - 0 - 1 - 0 1,282 2023-06-29 14:05:30
451 That's Gonna Be 219,760 137 - 5 - 1 - 0 - 1 143 2023-06-29 14:04:08
415 That's Gonna Be 308,865 196 - 5 - 0 - 1 - 0 200 2023-06-29 14:03:55
265 That's Gonna Be 1,269,540 1,003 - 12 - 0 - 1 - 5 715 2023-06-29 14:03:19
952 Hello (BPM) 2021 398,845 250 - 11 - 0 - 2 - 3 259 2023-06-29 14:01:59
13,832 Reluctantly Accepting Temporary Overexhaustion 688,285 500 - 7 - 0 - 2 - 1 412 2023-06-29 14:01:21
24,269 Reluctantly Accepting Temporary Overexhaustion 48,240 28 - 3 - 1 - 0 - 2 32 2023-06-29 14:00:45
24,404 Reluctantly Accepting Temporary Overexhaustion 34,050 28 - 0 - 0 - 1 - 2 19 2023-06-29 14:00:40
24,172 Reluctantly Accepting Temporary Overexhaustion 43,700 30 - 2 - 0 - 1 - 2 27 2023-06-29 14:00:36
163 Symphonies Of Suckness 2,982,925 1,916 - 7 - 4 - 0 - 1 1,927 2023-06-29 13:59:25
28 Symphonies Of Suckness 4,676,660 3,020 - 11 - 3 - 1 - 11 3,013 2023-06-29 13:55:44
393 Make the Fire Burn 3,335,245 2,244 - 6 - 1 - 2 - 2 2,100 2023-06-29 13:50:01
161 Neko Nadetai 233,885 213 - 5 - 0 - 2 - 1 116 2023-06-29 13:46:36
307 The Little Devil's Heart-Pounding Amusement Park [Oni] 1,451,415 938 - 3 - 0 - 1 - 0 935 2023-06-29 13:45:39
327 Gamma Stop Sending Me High Quality Rips 1,038,845 677 - 3 - 0 - 1 - 1 666 2023-06-29 13:43:55
100 Real Ultimate Power 1,940,485 1,254 - 4 - 1 - 1 - 3 1,250 2023-06-29 13:38:48
17 Real Ultimate Power 3,062,930 2,049 - 8 - 2 - 1 - 1 1,934 2023-06-29 13:37:08
115 Real Ultimate Power 1,198,470 779 - 1 - 1 - 1 - 0 770 2023-06-29 13:35:02
107 Real Ultimate Power 1,624,635 1,041 - 9 - 0 - 1 - 4 1,050 2023-06-29 13:33:45
215 Gamma Stop Sending Me High Quality Rips 2,969,300 1,994 - 2 - 0 - 3 - 1 1,873 2023-06-29 13:30:18
243 Fury 956,800 614 - 4 - 0 - 0 - 0 618 2023-06-29 13:27:40
478 Wanderflux 849,015 551 - 1 - 0 - 1 - 0 546 2023-06-29 13:26:41
298 Wanderflux 2,895,795 1,864 - 8 - 1 - 2 - 2 1,869 2023-06-29 13:25:34
771 Wanderflux 110,050 71 - 0 - 0 - 0 - 0 71 2023-06-29 13:23:22
358 Wanderflux 2,379,375 1,537 - 5 - 0 - 1 - 2 1,533 2023-06-29 13:21:45
24 Wanderflux [PB] 4,254,605 3,031 - 7 - 0 - 1 - 3 2,586 2023-06-29 13:17:54
240 Wanderflux 3,535,805 2,358 - 2 - 1 - 2 - 4 2,239 2023-06-29 13:13:52
38 Wanderflux 3,271,825 3,025 - 11 - 0 - 3 - 1 1,606 2023-06-29 13:11:17
215 Violent Arcade 2,046,150 2,243 - 27 - 1 - 6 - 6 807 2023-06-29 12:03:12
81 F.F.R ~FINAL FRONTIER RESOLUTION~ 1,870,980 1,681 - 10 - 0 - 4 - 4 945 2023-06-29 12:00:13
239 Fury 975,170 628 - 4 - 0 - 1 - 1 629 2023-06-29 11:58:18
167 Fury 3,012,030 1,935 - 11 - 3 - 1 - 5 1,945 2023-06-29 11:57:03
123 Neko Nadetai 865,910 746 - 11 - 5 - 5 - 7 454 2023-06-29 11:54:46
178 Neko Nadetai 94,855 62 - 5 - 0 - 2 - 0 60 2023-06-29 11:53:57
361 That's Gonna Be 451,710 295 - 4 - 0 - 2 - 1 289 2023-06-29 11:53:46
293 That's Gonna Be 675,255 599 - 5 - 2 - 2 - 3 345 2023-06-29 11:53:18
40 Bolt Thrower In A Chinese Restaurant 2,892,995 3,171 - 72 - 7 - 16 - 14 1,134 2023-06-29 11:52:03
131 res extensa 292,665 194 - 1 - 0 - 1 - 0 186 2023-06-29 11:48:45
303 Zygourous Distribution 1,238,945 833 - 16 - 1 - 2 - 2 777 2023-06-29 11:48:25
4,286 Undici 523,910 384 - 4 - 0 - 1 - 4 312 2023-06-29 11:47:16
4,320 Undici 585,710 378 - 8 - 0 - 1 - 4 376 2023-06-29 11:46:46
631 Undici 2,155,855 2,144 - 32 - 3 - 7 - 7 970 2023-06-29 11:45:55
34 Undici 3,304,225 3,287 - 41 - 2 - 9 - 11 1,488 2023-06-29 11:42:13
92 goTe EX [PB] 1,584,665 2,180 - 88 - 11 - 22 - 16 368 2023-06-29 11:38:17
211 Gamma Stop Sending Me High Quality Rips 3,110,755 2,029 - 11 - 2 - 1 - 1 1,992 2023-06-26 14:39:09
209 PEACE BREAKER 1,104,820 714 - 5 - 1 - 1 - 0 711 2023-06-26 14:36:05
13,829 Reluctantly Accepting Temporary Overexhaustion 774,615 499 - 9 - 0 - 1 - 0 498 2023-06-26 14:34:35
105 Crystal Chamber Combustion (bike) 1,651,815 1,810 - 60 - 17 - 6 - 13 641 2023-06-26 14:32:43
1,191 Crystal Chamber Combustion (bike) 276,265 173 - 13 - 4 - 2 - 3 178 2023-06-26 14:31:19
221 Isometry 617,420 488 - 2 - 2 - 2 - 1 349 2023-06-26 14:30:50
20 LWVIIX (Lawn Wake 69) 2,285,240 2,284 - 73 - 5 - 13 - 14 1,013 2023-06-26 14:29:04
255 LWVIIX (Lawn Wake 69) 652,275 420 - 1 - 0 - 0 - 0 421 2023-06-26 14:26:50
608 Violent Arcade 219,550 140 - 2 - 0 - 0 - 0 142 2023-06-26 14:26:05
118 F.F.R ~FINAL FRONTIER RESOLUTION~ 932,410 690 - 2 - 0 - 2 - 1 553 2023-06-26 14:25:38
235 Zygourous Distribution 1,595,510 1,281 - 12 - 8 - 2 - 8 888 2023-06-26 14:22:27
31 Zygourous Distribution [PB] 2,186,210 2,510 - 39 - 3 - 6 - 16 797 2023-06-26 14:19:15
46 Zygourous Distribution 2,329,340 2,488 - 44 - 12 - 14 - 24 953 2023-06-26 14:16:08
150 Zygourous Distribution 1,935,510 1,742 - 28 - 4 - 11 - 5 973 2023-06-26 14:12:28
588 Zygourous Distribution 155,450 103 - 1 - 1 - 21 - 1 105 2023-06-26 14:10:42
393 Extratone Firestorm 1,195,435 890 - 14 - 1 - 3 - 2 703 2023-06-26 14:10:19
45 Extratone Firestorm 2,603,690 3,227 - 80 - 10 - 17 - 22 812 2023-06-26 14:08:45
148 Isometry 2,215,395 1,797 - 39 - 8 - 6 - 13 1,218 2023-06-26 14:04:37
127 Ra Variationen [PB] 2,904,065 2,834 - 13 - 0 - 7 - 2 1,344 2023-06-26 13:59:17
147 Track title 1,657,955 1,199 - 16 - 1 - 3 - 1 995 2023-06-26 13:55:13
1,012 Love Hurts (Lonely Dance Mix) [1.6x] 306,630 208 - 16 - 2 - 4 - 2 189 2023-06-26 13:53:35
197 The Everlasting Calamity That Shifts The Time - Space Continuum On A Nanosecondal Basis [1.6x] 507,465 350 - 1 - 0 - 1 - 0 315 2023-06-26 13:52:31
117 Panic! Pop'n! Picnic! [1.6x] 164,565 170 - 7 - 0 - 6 - 0 71 2023-06-26 13:52:05
118 Panic! Pop'n! Picnic! [1.6x] 48,440 43 - 4 - 0 - 1 - 0 24 2023-06-26 13:50:39
332 Eternal Peace Is Nothing But An Illusion [1.6x] 1,605,145 1,488 - 33 - 4 - 11 - 7 781 2023-06-26 13:49:39
758 Ripcord [1.4x] 754,765 483 - 4 - 1 - 0 - 2 488 2023-06-26 13:47:25
2,451 The Simpsons [1.8x] 47,550 25 - 10 - 0 - 3 - 1 32 2023-06-26 13:45:50
1,796 Level Skip [1.8x] 100,910 126 - 20 - 0 - 19 - 0 32 2023-06-26 13:45:13
470 C204 [1.8x] 307,415 339 - 22 - 1 - 10 - 2 118 2023-06-26 13:44:46
1,069 Twister [1.8x] 488,740 574 - 25 - 1 - 9 - 5 169 2023-06-26 13:42:57
166 Don Pardo Pimpwagon [1.8x] 1,508,030 1,602 - 62 - 10 - 11 - 13 613 2023-06-26 13:41:36
392 Jettison [1.8x] 191,400 162 - 8 - 0 - 6 - 2 102 2023-06-26 13:39:22
868 Endgame [1.8x] 1,000,305 957 - 10 - 1 - 9 - 3 474 2023-06-26 13:38:09
1,149 Endgame [1.8x] 341,510 330 - 7 - 1 - 3 - 2 159 2023-06-26 13:36:38
4,755 UNknown Girl [2.2x] 981,105 1,180 - 63 - 2 - 23 - 10 322 2023-06-26 13:33:19
646 Prison Break [1.9x] [FC] 1,577,055 1,015 - 3 - 0 - 0 - 1 1,018 2023-06-26 13:28:52
1,393 Southern Cross [1.5x] 2,935,505 2,083 - 37 - 2 - 1 - 6 1,780 2023-06-26 13:21:25
58 Where's Bill [SR] 0 1 - 0 - 0 - 12 - 0 1 2023-06-26 07:38:08
192 Neko Nadetai 37,720 23 - 0 - 2 - 0 - 2 25 2023-06-25 15:30:56
178 Neko Nadetai 94,340 59 - 8 - 0 - 1 - 0 60 2023-06-25 15:30:52
164 Neko Nadetai 180,155 120 - 5 - 2 - 1 - 1 113 2023-06-25 15:30:43
178 Neko Nadetai 81,025 60 - 6 - 1 - 2 - 3 47 2023-06-25 15:30:33
444 That's Gonna Be 232,105 146 - 4 - 1 - 1 - 2 151 2023-06-25 15:30:21
511 That's Gonna Be 69,200 43 - 2 - 0 - 0 - 0 45 2023-06-25 15:29:59
339 That's Gonna Be 538,460 349 - 10 - 2 - 1 - 2 344 2023-06-25 15:29:53
322 That's Gonna Be 628,280 398 - 11 - 1 - 2 - 4 407 2023-06-25 15:29:08
469 That's Gonna Be 185,140 118 - 2 - 0 - 1 - 0 120 2023-06-25 15:28:37
488 That's Gonna Be 122,450 79 - 0 - 0 - 0 - 0 79 2023-06-25 15:22:28
423 That's Gonna Be 283,345 188 - 1 - 0 - 1 - 1 180 2023-06-25 15:21:56
469 That's Gonna Be 184,175 118 - 1 - 0 - 0 - 0 119 2023-06-25 15:21:23
291 That's Gonna Be 948,800 608 - 10 - 0 - 1 - 2 612 2023-06-25 15:21:03
250 That's Gonna Be 1,912,805 1,225 - 12 - 3 - 1 - 5 1,236 2023-06-25 15:19:54
318 That's Gonna Be 568,055 406 - 5 - 0 - 2 - 0 344 2023-06-25 15:18:29
155 Starflight 2,006,495 1,590 - 17 - 0 - 2 - 3 1,128 2023-06-25 15:17:19
38 Bolt Thrower In A Chinese Restaurant 2,790,265 3,179 - 63 - 6 - 18 - 13 1,030 2023-06-25 15:14:12
238 LWVIIX (Lawn Wake 69) 687,010 443 - 7 - 1 - 2 - 0 442 2023-06-25 15:10:34
92 goTe EX [PB] 1,965,885 2,079 - 59 - 2 - 12 - 9 810 2023-06-25 15:09:44
503 Heartbreak Furry Fandom [PB] 393,315 327 - 84 - 11 - 10 - 7 193 2023-06-25 15:07:28
97 res extensa 1,078,675 705 - 1 - 0 - 1 - 2 691 2023-06-25 15:06:19
3,942 The Disappearance of Hatsune Miku -Theatrical Version- [1.2x] 406,025 363 - 7 - 2 - 2 - 2 205 2023-06-25 15:05:33
167 Finding Her Not [1.2x] 1,948,960 1,492 - 16 - 4 - 4 - 1 1,125 2023-06-25 15:04:23
661 A Dichroic Glass Snafu [1.2x] 1,579,770 1,527 - 27 - 3 - 5 - 6 734 2023-06-25 15:02:24
183 DIST SQUAD [1.2x] 315,205 294 - 7 - 4 - 2 - 1 152 2023-06-25 15:00:11
25 Celsus v2 [1.2x] 1,753,205 1,130 - 11 - 8 - 2 - 7 1,129 2023-06-25 14:58:56
25 Celsus v2 [1.2x] 1,740,295 1,130 - 9 - 0 - 2 - 3 1,117 2023-06-25 14:57:38
31 Celsus v2 [1.2x] 551,950 357 - 2 - 0 - 3 - 1 356 2023-06-25 14:56:12
17 Celsus v2 [1.2x] 1,988,150 2,024 - 15 - 3 - 4 - 5 872 2023-06-25 14:55:05
26 Celsus v2 [1.2x] 1,402,830 904 - 7 - 1 - 1 - 2 904 2023-06-25 14:52:05
16 Celsus v2 [1.2x] 2,074,020 2,020 - 20 - 4 - 2 - 4 958 2023-06-25 14:50:04
35 Slash Dot Slash (Slim boy fat) [1.5x] 539,880 587 - 43 - 3 - 6 - 5 207 2023-06-25 14:47:28
187 Mondo Brutale 463,965 283 - 15 - 6 - 0 - 7 304 2023-06-24 15:41:39
8,773 Reluctantly Accepting Temporary Overexhaustion 1,278,340 817 - 12 - 0 - 1 - 0 826 2023-06-24 15:40:53
26,493 Reluctantly Accepting Temporary Overexhaustion 15,500 10 - 0 - 0 - 0 - 0 10 2023-06-24 15:39:52
113 Symphonies Of Suckness 3,979,460 2,761 - 12 - 0 - 1 - 4 2,458 2023-06-24 15:38:48
253 Symphonies Of Suckness 792,115 513 - 1 - 0 - 1 - 0 510 2023-06-24 15:35:10
159 Symphonies Of Suckness 2,976,605 1,948 - 3 - 0 - 2 - 0 1,905 2023-06-24 15:33:35
320 Odd-22 2,750,605 1,771 - 7 - 0 - 1 - 3 1,775 2023-06-24 15:29:38
749 Odd-22 450,775 290 - 1 - 0 - 0 - 0 291 2023-06-24 15:27:25
47 Odd-22 [FC] 3,496,150 2,249 - 8 - 0 - 0 - 0 2,257 2023-06-24 15:25:17
195 Adcar 1,535,775 990 - 1 - 0 - 0 - 0 991 2023-06-24 15:21:11
16 Adcar [FC] [PB] 4,481,735 2,889 - 3 - 0 - 0 - 2 2,892 2023-06-24 15:17:26
162 Adcar 2,505,485 1,614 - 3 - 0 - 0 - 2 1,617 2023-06-24 15:13:55
216 Adcar 963,825 621 - 1 - 0 - 0 - 0 622 2023-06-24 15:11:44
1 Celsus v2 [AAA] [FC] [SR] 3,171,300 2,046 - 0 - 0 - 0 - 0 2,046 2023-06-24 15:08:58
161 Clockwork Dragon 414,610 266 - 1 - 1 - 0 - 1 268 2023-06-24 14:05:12
117 Blackmagik Blazing 4,020,430 3,809 - 7 - 5 - 2 - 5 1,924 2023-06-24 14:03:26
246 Adcar 577,290 371 - 2 - 0 - 1 - 0 373 2023-06-24 13:59:01
426 Six Acid Strings 419,445 270 - 1 - 0 - 1 - 1 271 2023-06-24 13:58:01
282 Six Acid Strings 1,434,460 1,161 - 2 - 0 - 2 - 1 796 2023-06-24 13:56:34
61 Six Acid Strings [FC] [PB] 2,836,350 1,822 - 8 - 2 - 0 - 3 1,832 2023-06-24 13:54:45
538 Six Acid Strings 106,675 68 - 1 - 0 - 0 - 0 69 2023-06-24 13:52:28
535 Six Acid Strings 126,515 81 - 1 - 0 - 1 - 0 82 2023-06-24 13:52:16
264 Pictured as Perfect 2,075,365 1,335 - 4 - 1 - 0 - 2 1,340 2023-06-24 13:51:43
54 Mondo Brutale [PB] 1,399,870 1,849 - 99 - 17 - 22 - 21 362 2023-06-19 10:22:27
110 UR+ MusicEater LV99 1,528,990 985 - 2 - 0 - 1 - 0 987 2023-06-19 10:19:56
135 UR+ MusicEater LV99 232,225 149 - 1 - 0 - 0 - 0 150 2023-06-19 10:18:47
233 Nageki no mori (Breakcore Remix) [1.4x] 541,995 616 - 35 - 6 - 8 - 14 196 2023-06-19 10:18:22
212 Nageki no mori (Breakcore Remix) [1.4x] 688,965 876 - 38 - 5 - 8 - 4 199 2023-06-19 10:17:36
352 Inferno of Fomalhaut [1.4x] 935,000 1,168 - 84 - 4 - 14 - 19 274 2023-06-19 10:16:02
2,020 POWERPUFF GABBERZ [1.9x] 726,575 629 - 39 - 8 - 4 - 15 371 2023-06-19 10:14:13
11,590 M.A.M.A. [1.9x] 358,510 333 - 27 - 3 - 7 - 3 170 2023-06-19 10:12:32
302 CENSORED!! [1.9x] 769,520 867 - 37 - 5 - 12 - 3 286 2023-06-19 10:11:39
1,892 Tetris [Powerglove] [1.9x] 422,830 458 - 25 - 1 - 6 - 7 166 2023-06-19 10:10:40
489 Swamp Thing [1.9x] 918,475 1,209 - 62 - 9 - 18 - 22 242 2023-06-19 10:09:23
2,035 Pussy Pump [1.9x] 619,615 680 - 42 - 7 - 10 - 11 237 2023-06-19 10:07:49
112 F.F.R ~FINAL FRONTIER RESOLUTION~ 1,170,625 756 - 4 - 1 - 1 - 1 754 2023-06-18 16:56:35
640 Odd-22 789,190 509 - 2 - 0 - 1 - 0 509 2023-06-18 16:55:29
346 Symphonies Of Suckness 6,200 4 - 0 - 0 - 0 - 0 4 2023-06-18 16:54:34
317 Violent Arcade 2,374,010 1,521 - 14 - 0 - 1 - 4 1,534 2023-06-18 16:54:19
383 Violent Arcade 1,255,895 806 - 7 - 0 - 1 - 1 811 2023-06-18 16:51:28
171 Fury 2,774,815 1,791 - 4 - 1 - 1 - 4 1,789 2023-06-18 16:50:06
286 Fury 562,890 363 - 2 - 0 - 1 - 0 363 2023-06-18 16:48:03
481 Fury 35,340 23 - 0 - 0 - 1 - 0 23 2023-06-18 16:47:20
158 Fury 2,441,515 2,135 - 7 - 0 - 2 - 2 1,266 2023-06-18 16:47:08
217 Fury 1,144,525 791 - 3 - 0 - 1 - 2 709 2023-06-18 16:44:15
201 Fury 1,489,135 955 - 7 - 0 - 0 - 2 962 2023-06-18 16:42:05
237 Fury 978,370 632 - 4 - 0 - 1 - 1 630 2023-06-18 16:40:47
140 Neko Nadetai 728,600 597 - 9 - 3 - 1 - 4 398 2023-06-18 16:39:19
175 Neko Nadetai 93,265 65 - 3 - 0 - 1 - 0 57 2023-06-18 16:38:33
881 Hello (BPM) 2021 510,580 310 - 22 - 2 - 0 - 4 334 2023-06-18 16:38:18
405 That's Gonna Be 300,815 205 - 5 - 0 - 1 - 0 187 2023-06-18 16:37:48
356 That's Gonna Be 451,645 292 - 5 - 0 - 1 - 1 290 2023-06-18 16:37:04
465 That's Gonna Be 182,350 116 - 2 - 0 - 0 - 0 118 2023-06-18 16:36:33
350 That's Gonna Be 458,685 314 - 2 - 1 - 2 - 0 286 2023-06-18 16:36:01
355 That's Gonna Be 464,790 301 - 2 - 0 - 1 - 0 299 2023-06-18 16:35:06
342 That's Gonna Be 531,365 337 - 8 - 3 - 1 - 2 344 2023-06-18 16:34:38
337 That's Gonna Be 509,300 351 - 8 - 0 - 3 - 1 315 2023-06-18 16:33:43
496 That's Gonna Be 81,565 52 - 1 - 0 - 1 - 0 53 2023-06-18 16:33:18
362 That's Gonna Be 448,105 285 - 6 - 1 - 1 - 2 290 2023-06-18 16:32:47
335 That's Gonna Be 540,590 356 - 4 - 0 - 1 - 0 344 2023-06-18 16:30:45
290 That's Gonna Be 936,065 599 - 9 - 2 - 3 - 2 605 2023-06-18 16:30:20
314 That's Gonna Be 635,370 412 - 4 - 0 - 1 - 1 408 2023-06-18 16:29:36
356 That's Gonna Be 449,940 293 - 4 - 0 - 1 - 0 288 2023-06-18 16:29:07
201 That's Gonna Be 2,502,020 1,610 - 18 - 0 - 1 - 6 1,612 2023-06-18 16:28:04
26 That's Gonna Be 2,464,265 2,253 - 13 - 2 - 1 - 13 1,222 2023-06-18 16:26:18
24 That's Gonna Be [PB] 2,893,595 2,254 - 13 - 0 - 2 - 3 1,651 2023-06-18 16:22:23
105 Starflight 2,705,550 1,975 - 19 - 9 - 4 - 9 1,615 2023-06-18 13:51:40
26 Starflight 3,364,005 2,471 - 37 - 6 - 1 - 12 1,995 2023-06-18 13:48:42
208 Starflight 1,925,455 1,243 - 4 - 1 - 1 - 2 1,241 2023-06-18 13:46:26
169 Starflight 2,321,775 1,494 - 12 - 3 - 1 - 4 1,497 2023-06-18 13:44:52
25 Starflight 3,158,410 2,478 - 23 - 13 - 1 - 11 1,789 2023-06-18 13:42:29
25 Starflight 2,291,575 2,480 - 23 - 6 - 6 - 11 923 2023-06-18 13:39:56
115 PEACE BREAKER 2,276,515 1,461 - 12 - 1 - 1 - 4 1,470 2023-06-18 13:37:36
21 LWVIIX (Lawn Wake 69) 2,390,080 2,281 - 72 - 14 - 8 - 28 1,118 2023-06-18 13:35:20
28 Tachyon Beam Cannon 4,062,730 5,256 - 41 - 9 - 8 - 18 1,163 2023-06-18 13:31:10
39 Extratone Firestorm [PB] 2,767,465 3,256 - 60 - 9 - 9 - 27 963 2023-06-18 13:26:13
510 Extratone Firestorm 803,230 510 - 10 - 0 - 0 - 1 520 2023-06-18 13:23:10
111 Schwerkraft [1.2x] 989,190 625 - 26 - 2 - 2 - 10 639 2023-06-18 13:22:20
254 The Disappearance of Hatsune Miku -Theatrical Version- [1.2x] 1,831,105 1,906 - 38 - 7 - 9 - 12 775 2023-06-18 13:20:32
216 Eternal Peace Is Nothing But An Illusion [1.6x] 2,339,350 1,775 - 75 - 11 - 15 - 24 1,347 2023-06-18 13:17:39
1,324 All i wanna do is touch your powerpoints [1.6x] 1,389,875 1,346 - 57 - 4 - 10 - 11 637 2023-06-18 13:15:25
594 The Devil Plays Dance Games [1.6x] 1,288,160 1,499 - 49 - 11 - 13 - 17 454 2023-06-18 13:13:11
505 Exam Cram [Oni] [1.3x] 862,715 595 - 16 - 1 - 3 - 3 532 2023-06-18 13:10:04
143 Bust It Out [1.4x] 901,985 580 - 5 - 0 - 1 - 4 582 2023-06-18 13:08:51
75 ++ [1.4x] 563,235 361 - 11 - 2 - 1 - 7 362 2023-06-18 13:07:38
80 ++ [1.4x] 108,500 74 - 0 - 0 - 20 - 0 74 2023-06-18 13:07:10
103 Tanaka [1.4x] 1,571,765 1,615 - 75 - 16 - 11 - 29 666 2023-06-18 13:06:04
96 Finding Her Not [1.3x] 2,276,155 2,914 - 94 - 13 - 15 - 23 652 2023-06-18 13:03:07
131 Mike French Hardcore Custom [1.4x] 990,400 807 - 43 - 7 - 8 - 9 537 2023-06-18 12:59:04
1,773 Call me it. (500 Tortures) [1.3x] 575,130 632 - 24 - 4 - 7 - 6 223 2023-06-18 12:56:48
1,267 thinking of you [1.4x] 640,915 556 - 23 - 0 - 7 - 2 331 2023-06-18 12:55:43
20 Slash Dot Slash (Slim boy fat) [1.5x] 1,342,805 1,856 - 175 - 18 - 31 - 25 283 2023-06-18 12:54:13
18 Slash Dot Slash (Slim boy fat) [1.4x] 2,009,280 2,741 - 129 - 21 - 30 - 30 475 2023-06-18 12:52:25
15 Slash Dot Slash (Slim boy fat) [1.3x] 3,293,430 3,012 - 67 - 13 - 3 - 19 1,619 2023-06-18 12:49:47
1,993 The Simpsons [1.8x] 206,175 237 - 29 - 4 - 17 - 5 73 2023-06-18 12:46:13
2,277 The Simpsons [1.8x] 91,125 100 - 18 - 1 - 6 - 1 33 2023-06-18 12:45:54
86 Alive (Pegboard Nerds Remix) [Full Version] [1.8x] 1,095,510 1,064 - 90 - 10 - 15 - 17 490 2023-06-18 12:45:29
2,072 Amen Iraq [1.8x] 136,510 107 - 13 - 1 - 3 - 2 75 2023-06-18 12:43:41
1,894 Amen Iraq [1.8x] 235,935 240 - 27 - 2 - 8 - 6 99 2023-06-18 12:43:18
2,091 Gotta Catch 'Em All [1.8x] 747,590 1,017 - 60 - 4 - 20 - 14 178 2023-06-18 12:42:11
333 Ani Mevushal [1.8x] 1,728,490 1,338 - 87 - 5 - 7 - 22 971 2023-06-18 12:40:33
1,617 Artificial Intelligence Bomb [1.8x] 228,570 157 - 3 - 1 - 2 - 2 142 2023-06-18 12:39:03
63 Chapter III (Sword) [1.8x] 1,661,735 1,853 - 43 - 2 - 7 - 9 633 2023-06-18 12:38:44
3,329 ULTRAnumb [2.4x] 362,250 404 - 31 - 1 - 21 - 1 138 2023-06-18 07:19:03
3,725 ULTRAnumb [2.4x] 320,110 202 - 6 - 0 - 2 - 1 208 2023-06-18 07:14:21
3,726 ULTRAnumb [2.4x] 247,510 201 - 10 - 0 - 9 - 0 137 2023-06-18 07:14:02
9,990 Cruel Whole (Abelcain Remix) [2.4x] 543,060 470 - 8 - 0 - 2 - 1 283 2023-06-18 07:13:31
2,477 Beep Beep I'm a Sheep [2.4x] 32,075 25 - 1 - 0 - 3 - 1 19 2023-06-18 07:12:30
265 Track title 217,965 140 - 1 - 0 - 1 - 0 141 2023-06-17 11:50:31
143 goTe EX 557,235 448 - 11 - 4 - 1 - 5 308 2023-06-17 10:55:34
117 eXXXcaliborg.Error 522,565 483 - 14 - 1 - 3 - 3 254 2023-06-17 10:54:43
73 eXXXcaliborg.Error [PB] 1,503,295 1,462 - 39 - 2 - 8 - 8 691 2023-06-17 10:53:50
29 Weeping Wastelands 7,702,845 4,954 - 19 - 0 - 0 - 4 4,973 2023-06-17 10:52:09
1,915 Serious Shit [1.2x] 425,590 274 - 8 - 0 - 1 - 0 273 2023-06-17 10:46:14
53 Hopeful Frontier!!! [1.2x] 977,710 636 - 2 - 0 - 2 - 1 628 2023-06-17 10:45:49
49 Hopeful Frontier!!! [1.2x] 1,530,535 1,192 - 13 - 0 - 2 - 1 872 2023-06-17 10:44:58
29 Hopeful Frontier!!! [1.2x] 1,982,670 1,811 - 36 - 2 - 1 - 4 977 2023-06-17 10:43:50
60 Hopeful Frontier!!! [1.2x] 5,580 7 - 0 - 0 - 17 - 0 7 2023-06-17 10:40:18
209 toromi hearts 2 [1.2x] 1,372,830 886 - 3 - 1 - 1 - 2 885 2023-06-17 10:39:56
43 ++ [1.2x] 1,565,620 1,676 - 13 - 5 - 3 - 5 641 2023-06-17 10:38:50
68 ++ [1.2x] 628,405 445 - 1 - 0 - 2 - 0 384 2023-06-17 10:37:20
6 Slash Dot Slash (Slim boy fat) [1.2x] [FC] 4,787,520 3,065 - 25 - 5 - 0 - 19 3,095 2023-06-17 10:35:51
6 Slash Dot Slash (Slim boy fat) [1.2x] 3,169,300 3,062 - 26 - 4 - 3 - 12 1,479 2023-06-17 10:32:37
6 Slash Dot Slash (Slim boy fat) [1.2x] 3,363,895 3,055 - 31 - 6 - 3 - 14 1,676 2023-06-17 10:29:33
6 Slash Dot Slash (Slim boy fat) [1.2x] 3,429,325 3,057 - 29 - 6 - 3 - 20 1,741 2023-06-17 10:26:04
8 Slash Dot Slash (Slim boy fat) [1.2x] 782,685 508 - 7 - 0 - 2 - 1 502 2023-06-17 10:23:21
8 Slash Dot Slash (Slim boy fat) [1.2x] 806,585 513 - 9 - 0 - 0 - 2 522 2023-06-17 10:22:48
6 Slash Dot Slash (Slim boy fat) [1.2x] 4,318,275 3,044 - 42 - 7 - 2 - 12 2,633 2023-06-17 10:21:59
8 Slash Dot Slash (Slim boy fat) [1.2x] 557,335 421 - 4 - 1 - 1 - 3 325 2023-06-17 10:19:12
6 Slash Dot Slash (Slim boy fat) [1.2x] 2,746,955 3,047 - 40 - 5 - 3 - 12 1,061 2023-06-17 10:18:28
578 Slashmaid [1.6x] 971,510 1,172 - 42 - 10 - 9 - 20 318 2023-06-17 10:14:56
924 Ah Shwe Bah [1.6x] 863,595 1,054 - 56 - 5 - 14 - 22 273 2023-06-17 10:13:49
3,141 11ELEVEN [1.6x] 562,635 502 - 26 - 1 - 5 - 6 281 2023-06-17 10:12:27
471 Real [1.6x] 1,182,030 1,054 - 56 - 14 - 8 - 18 589 2023-06-17 10:11:22
313 Eternal Peace Is Nothing But An Illusion [1.6x] 2,113,760 1,541 - 64 - 10 - 24 - 25 1,256 2023-06-17 10:09:00
1,149 My Fxxkin Desire For You [1.6x] 923,765 1,062 - 45 - 8 - 9 - 18 330 2023-06-17 10:06:55
922 Gate Openerz [1.6x] 656,160 577 - 50 - 6 - 13 - 12 329 2023-06-17 10:05:31
1,006 Gate Openerz [1.6x] 364,720 425 - 26 - 0 - 10 - 4 127 2023-06-17 10:04:51
243 KlungKung 2004 v2 [1.5x] 432,065 305 - 13 - 2 - 1 - 3 261 2023-06-17 10:04:10
216 KlungKung 2004 v2 [1.5x] 515,140 470 - 14 - 2 - 4 - 4 254 2023-06-17 10:03:45
1,180 Een Lijden [1.6x] 123,450 96 - 8 - 0 - 5 - 0 70 2023-06-17 10:03:10
492 Just why [1.6x] 1,165,255 1,409 - 26 - 1 - 12 - 9 387 2023-06-17 10:02:32
1,637 Just why [1.6x] 357,725 291 - 11 - 0 - 1 - 2 195 2023-06-17 10:00:42
2,119 Just why [1.6x] 3,100 2 - 0 - 0 - 0 - 0 2 2023-06-17 10:00:03
2,114 Just why [1.6x] 6,160 4 - 0 - 0 - 0 - 2 4 2023-06-17 09:59:57
146 Tanaka [1.3x] 404,020 381 - 16 - 0 - 3 - 0 191 2023-06-16 16:00:29
120 Paradoxical time leap trial [1.3x] 1,886,605 1,767 - 61 - 8 - 4 - 11 899 2023-06-16 15:59:35
164 Shuu no Hazama (Rainshower) [1.3x] 192,600 179 - 4 - 0 - 3 - 1 94 2023-06-16 15:57:45
380 Chronomia [1.3x] 711,775 694 - 32 - 5 - 6 - 7 323 2023-06-16 15:57:22
311 Cest What [1.3x] 1,690,925 1,183 - 37 - 2 - 3 - 4 1,031 2023-06-16 15:56:32
1 2 3 4 5 6 7 8 9 10 11 12 13